<?xml version="1.0" encoding="UTF-8" standalone="no" ?>
<gpx xmlns="http://www.topografix.com/GPX/1/1" xmlns:xsi="http://www.w3.org/2001/XMLSchema-instance" xsi:schemaLocation="http://www.topografix.com/GPX/1/1 http://www.topografix.com/GPX/1/1/gpx.xsd" version="1.1" creator="VisuGPX - https://www.visugpx.com">
  <metadata>
    <name>Grands, boucle du 14/12/2013</name>
    <desc><![CDATA[Boucle des Grands]]></desc>
  </metadata>
  <trk>
    <name><![CDATA[14-DEC-13 boucle des grands]]></name>
    <trkseg>
      <trkpt lat="43.00734" lon="-0.09497">
        <ele>426.96</ele>
        <time>2013-12-14T13:08:38Z</time>
      </trkpt>
      <trkpt lat="43.00734" lon="-0.09496">
        <ele>425.52</ele>
        <time>2013-12-14T13:08:45Z</time>
      </trkpt>
      <trkpt lat="43.00734" lon="-0.09496">
        <ele>426.48</ele>
        <time>2013-12-14T13:08:47Z</time>
      </trkpt>
      <trkpt lat="43.00734" lon="-0.09496">
        <ele>426</ele>
        <time>2013-12-14T13:08:49Z</time>
      </trkpt>
      <trkpt lat="43.00727" lon="-0.09501">
        <ele>426.48</ele>
        <time>2013-12-14T13:08:54Z</time>
      </trkpt>
      <trkpt lat="43.00701" lon="-0.09516">
        <ele>427.44</ele>
        <time>2013-12-14T13:09:04Z</time>
      </trkpt>
      <trkpt lat="43.00684" lon="-0.09528">
        <ele>427.92</ele>
        <time>2013-12-14T13:09:10Z</time>
      </trkpt>
      <trkpt lat="43.0065" lon="-0.09552">
        <ele>429.37</ele>
        <time>2013-12-14T13:09:25Z</time>
      </trkpt>
      <trkpt lat="43.0062" lon="-0.09574">
        <ele>430.81</ele>
        <time>2013-12-14T13:09:38Z</time>
      </trkpt>
      <trkpt lat="43.00599" lon="-0.096">
        <ele>431.77</ele>
        <time>2013-12-14T13:09:49Z</time>
      </trkpt>
      <trkpt lat="43.00579" lon="-0.096">
        <ele>431.77</ele>
        <time>2013-12-14T13:09:56Z</time>
      </trkpt>
      <trkpt lat="43.00565" lon="-0.09583">
        <ele>432.25</ele>
        <time>2013-12-14T13:10:03Z</time>
      </trkpt>
      <trkpt lat="43.00532" lon="-0.0956">
        <ele>432.25</ele>
        <time>2013-12-14T13:10:16Z</time>
      </trkpt>
      <trkpt lat="43.00491" lon="-0.09559">
        <ele>433.69</ele>
        <time>2013-12-14T13:10:30Z</time>
      </trkpt>
      <trkpt lat="43.00462" lon="-0.09578">
        <ele>434.17</ele>
        <time>2013-12-14T13:10:41Z</time>
      </trkpt>
      <trkpt lat="43.00434" lon="-0.09587">
        <ele>434.65</ele>
        <time>2013-12-14T13:10:52Z</time>
      </trkpt>
      <trkpt lat="43.00402" lon="-0.09603">
        <ele>435.13</ele>
        <time>2013-12-14T13:11:05Z</time>
      </trkpt>
      <trkpt lat="43.00398" lon="-0.09608">
        <ele>435.13</ele>
        <time>2013-12-14T13:11:07Z</time>
      </trkpt>
      <trkpt lat="43.00388" lon="-0.09633">
        <ele>436.1</ele>
        <time>2013-12-14T13:11:17Z</time>
      </trkpt>
      <trkpt lat="43.00388" lon="-0.09635">
        <ele>436.58</ele>
        <time>2013-12-14T13:11:29Z</time>
      </trkpt>
      <trkpt lat="43.00386" lon="-0.09638">
        <ele>436.1</ele>
        <time>2013-12-14T13:12:02Z</time>
      </trkpt>
      <trkpt lat="43.00385" lon="-0.09637">
        <ele>436.58</ele>
        <time>2013-12-14T13:12:32Z</time>
      </trkpt>
      <trkpt lat="43.00386" lon="-0.09637">
        <ele>436.1</ele>
        <time>2013-12-14T13:13:02Z</time>
      </trkpt>
      <trkpt lat="43.00387" lon="-0.09637">
        <ele>436.58</ele>
        <time>2013-12-14T13:13:33Z</time>
      </trkpt>
      <trkpt lat="43.00387" lon="-0.09637">
        <ele>437.06</ele>
        <time>2013-12-14T13:13:45Z</time>
      </trkpt>
      <trkpt lat="43.00384" lon="-0.09642">
        <ele>436.58</ele>
        <time>2013-12-14T13:13:48Z</time>
      </trkpt>
      <trkpt lat="43.00352" lon="-0.09648">
        <ele>438.02</ele>
        <time>2013-12-14T13:14:02Z</time>
      </trkpt>
      <trkpt lat="43.00325" lon="-0.09654">
        <ele>438.5</ele>
        <time>2013-12-14T13:14:13Z</time>
      </trkpt>
      <trkpt lat="43.00288" lon="-0.09669">
        <ele>438.98</ele>
        <time>2013-12-14T13:14:26Z</time>
      </trkpt>
      <trkpt lat="43.00286" lon="-0.09671">
        <ele>438.98</ele>
        <time>2013-12-14T13:14:27Z</time>
      </trkpt>
      <trkpt lat="43.00252" lon="-0.09664">
        <ele>438.98</ele>
        <time>2013-12-14T13:14:38Z</time>
      </trkpt>
      <trkpt lat="43.00198" lon="-0.0967">
        <ele>439.94</ele>
        <time>2013-12-14T13:14:54Z</time>
      </trkpt>
      <trkpt lat="43.00155" lon="-0.09674">
        <ele>441.38</ele>
        <time>2013-12-14T13:15:07Z</time>
      </trkpt>
      <trkpt lat="43.00145" lon="-0.09637">
        <ele>440.42</ele>
        <time>2013-12-14T13:15:16Z</time>
      </trkpt>
      <trkpt lat="43.00143" lon="-0.09616">
        <ele>439.94</ele>
        <time>2013-12-14T13:15:20Z</time>
      </trkpt>
      <trkpt lat="43.00134" lon="-0.09561">
        <ele>438.98</ele>
        <time>2013-12-14T13:15:29Z</time>
      </trkpt>
      <trkpt lat="43.00121" lon="-0.09547">
        <ele>438.98</ele>
        <time>2013-12-14T13:15:34Z</time>
      </trkpt>
      <trkpt lat="43.00089" lon="-0.09572">
        <ele>439.94</ele>
        <time>2013-12-14T13:15:45Z</time>
      </trkpt>
      <trkpt lat="43.00051" lon="-0.09592">
        <ele>440.9</ele>
        <time>2013-12-14T13:15:58Z</time>
      </trkpt>
      <trkpt lat="43.00007" lon="-0.09614">
        <ele>442.82</ele>
        <time>2013-12-14T13:16:13Z</time>
      </trkpt>
      <trkpt lat="42.99966" lon="-0.09642">
        <ele>443.79</ele>
        <time>2013-12-14T13:16:28Z</time>
      </trkpt>
      <trkpt lat="42.9996" lon="-0.09648">
        <ele>443.79</ele>
        <time>2013-12-14T13:16:31Z</time>
      </trkpt>
      <trkpt lat="42.99945" lon="-0.09641">
        <ele>443.79</ele>
        <time>2013-12-14T13:16:36Z</time>
      </trkpt>
      <trkpt lat="42.99933" lon="-0.09624">
        <ele>443.31</ele>
        <time>2013-12-14T13:16:40Z</time>
      </trkpt>
      <trkpt lat="42.99885" lon="-0.09551">
        <ele>441.38</ele>
        <time>2013-12-14T13:16:56Z</time>
      </trkpt>
      <trkpt lat="42.99869" lon="-0.09526">
        <ele>441.38</ele>
        <time>2013-12-14T13:17:01Z</time>
      </trkpt>
      <trkpt lat="42.99819" lon="-0.09453">
        <ele>442.34</ele>
        <time>2013-12-14T13:17:17Z</time>
      </trkpt>
      <trkpt lat="42.99803" lon="-0.09432">
        <ele>442.34</ele>
        <time>2013-12-14T13:17:22Z</time>
      </trkpt>
      <trkpt lat="42.99783" lon="-0.09401">
        <ele>440.9</ele>
        <time>2013-12-14T13:17:29Z</time>
      </trkpt>
      <trkpt lat="42.99773" lon="-0.09394">
        <ele>440.9</ele>
        <time>2013-12-14T13:17:35Z</time>
      </trkpt>
      <trkpt lat="42.99774" lon="-0.09393">
        <ele>440.42</ele>
        <time>2013-12-14T13:17:36Z</time>
      </trkpt>
      <trkpt lat="42.99773" lon="-0.0939">
        <ele>440.42</ele>
        <time>2013-12-14T13:17:44Z</time>
      </trkpt>
      <trkpt lat="42.99771" lon="-0.09393">
        <ele>441.38</ele>
        <time>2013-12-14T13:17:57Z</time>
      </trkpt>
      <trkpt lat="42.99771" lon="-0.09393">
        <ele>440.9</ele>
        <time>2013-12-14T13:18:01Z</time>
      </trkpt>
      <trkpt lat="42.99773" lon="-0.09396">
        <ele>442.34</ele>
        <time>2013-12-14T13:18:13Z</time>
      </trkpt>
      <trkpt lat="42.99774" lon="-0.09397">
        <ele>442.34</ele>
        <time>2013-12-14T13:18:19Z</time>
      </trkpt>
      <trkpt lat="42.99776" lon="-0.09399">
        <ele>444.27</ele>
        <time>2013-12-14T13:18:28Z</time>
      </trkpt>
      <trkpt lat="42.99776" lon="-0.09401">
        <ele>445.23</ele>
        <time>2013-12-14T13:18:31Z</time>
      </trkpt>
      <trkpt lat="42.9978" lon="-0.09403">
        <ele>446.67</ele>
        <time>2013-12-14T13:18:35Z</time>
      </trkpt>
      <trkpt lat="42.99782" lon="-0.0941">
        <ele>448.11</ele>
        <time>2013-12-14T13:18:45Z</time>
      </trkpt>
      <trkpt lat="42.99782" lon="-0.09413">
        <ele>449.07</ele>
        <time>2013-12-14T13:18:52Z</time>
      </trkpt>
      <trkpt lat="42.99773" lon="-0.09414">
        <ele>450.52</ele>
        <time>2013-12-14T13:19:00Z</time>
      </trkpt>
      <trkpt lat="42.99763" lon="-0.09422">
        <ele>454.36</ele>
        <time>2013-12-14T13:19:11Z</time>
      </trkpt>
      <trkpt lat="42.99763" lon="-0.09423">
        <ele>454.36</ele>
        <time>2013-12-14T13:19:12Z</time>
      </trkpt>
      <trkpt lat="42.99753" lon="-0.09436">
        <ele>458.21</ele>
        <time>2013-12-14T13:19:23Z</time>
      </trkpt>
      <trkpt lat="42.99735" lon="-0.09445">
        <ele>459.17</ele>
        <time>2013-12-14T13:19:36Z</time>
      </trkpt>
      <trkpt lat="42.99701" lon="-0.09455">
        <ele>458.21</ele>
        <time>2013-12-14T13:19:46Z</time>
      </trkpt>
      <trkpt lat="42.99688" lon="-0.09456">
        <ele>460.13</ele>
        <time>2013-12-14T13:19:53Z</time>
      </trkpt>
      <trkpt lat="42.99679" lon="-0.09458">
        <ele>460.61</ele>
        <time>2013-12-14T13:19:59Z</time>
      </trkpt>
      <trkpt lat="42.99661" lon="-0.09454">
        <ele>461.57</ele>
        <time>2013-12-14T13:20:10Z</time>
      </trkpt>
      <trkpt lat="42.99646" lon="-0.09455">
        <ele>463.01</ele>
        <time>2013-12-14T13:20:18Z</time>
      </trkpt>
      <trkpt lat="42.99641" lon="-0.09454">
        <ele>463.49</ele>
        <time>2013-12-14T13:20:21Z</time>
      </trkpt>
      <trkpt lat="42.99626" lon="-0.09447">
        <ele>465.9</ele>
        <time>2013-12-14T13:20:30Z</time>
      </trkpt>
      <trkpt lat="42.99613" lon="-0.09439">
        <ele>465.9</ele>
        <time>2013-12-14T13:20:37Z</time>
      </trkpt>
      <trkpt lat="42.99597" lon="-0.09431">
        <ele>469.26</ele>
        <time>2013-12-14T13:20:48Z</time>
      </trkpt>
      <trkpt lat="42.99576" lon="-0.09419">
        <ele>470.22</ele>
        <time>2013-12-14T13:21:01Z</time>
      </trkpt>
      <trkpt lat="42.99565" lon="-0.09413">
        <ele>472.63</ele>
        <time>2013-12-14T13:21:09Z</time>
      </trkpt>
      <trkpt lat="42.99544" lon="-0.09402">
        <ele>475.99</ele>
        <time>2013-12-14T13:21:23Z</time>
      </trkpt>
      <trkpt lat="42.99527" lon="-0.09392">
        <ele>479.35</ele>
        <time>2013-12-14T13:21:35Z</time>
      </trkpt>
      <trkpt lat="42.99524" lon="-0.09391">
        <ele>479.84</ele>
        <time>2013-12-14T13:21:37Z</time>
      </trkpt>
      <trkpt lat="42.99515" lon="-0.09388">
        <ele>481.76</ele>
        <time>2013-12-14T13:21:43Z</time>
      </trkpt>
      <trkpt lat="42.995" lon="-0.09383">
        <ele>485.6</ele>
        <time>2013-12-14T13:21:56Z</time>
      </trkpt>
      <trkpt lat="42.99494" lon="-0.09382">
        <ele>487.05</ele>
        <time>2013-12-14T13:22:01Z</time>
      </trkpt>
      <trkpt lat="42.99492" lon="-0.09381">
        <ele>487.53</ele>
        <time>2013-12-14T13:22:03Z</time>
      </trkpt>
      <trkpt lat="42.99479" lon="-0.09376">
        <ele>488.97</ele>
        <time>2013-12-14T13:22:15Z</time>
      </trkpt>
      <trkpt lat="42.99469" lon="-0.09382">
        <ele>490.41</ele>
        <time>2013-12-14T13:22:24Z</time>
      </trkpt>
      <trkpt lat="42.99455" lon="-0.09403">
        <ele>493.77</ele>
        <time>2013-12-14T13:22:41Z</time>
      </trkpt>
      <trkpt lat="42.99451" lon="-0.0941">
        <ele>493.77</ele>
        <time>2013-12-14T13:22:46Z</time>
      </trkpt>
      <trkpt lat="42.9945" lon="-0.09415">
        <ele>493.77</ele>
        <time>2013-12-14T13:22:49Z</time>
      </trkpt>
      <trkpt lat="42.99442" lon="-0.09441">
        <ele>491.85</ele>
        <time>2013-12-14T13:22:55Z</time>
      </trkpt>
      <trkpt lat="42.9944" lon="-0.09471">
        <ele>488.49</ele>
        <time>2013-12-14T13:22:59Z</time>
      </trkpt>
      <trkpt lat="42.99439" lon="-0.09488">
        <ele>487.53</ele>
        <time>2013-12-14T13:23:01Z</time>
      </trkpt>
      <trkpt lat="42.99423" lon="-0.0953">
        <ele>485.6</ele>
        <time>2013-12-14T13:23:06Z</time>
      </trkpt>
      <trkpt lat="42.99393" lon="-0.09562">
        <ele>485.6</ele>
        <time>2013-12-14T13:23:12Z</time>
      </trkpt>
      <trkpt lat="42.9934" lon="-0.09609">
        <ele>486.08</ele>
        <time>2013-12-14T13:23:25Z</time>
      </trkpt>
      <trkpt lat="42.99333" lon="-0.09616">
        <ele>485.6</ele>
        <time>2013-12-14T13:23:27Z</time>
      </trkpt>
      <trkpt lat="42.99308" lon="-0.09632">
        <ele>485.6</ele>
        <time>2013-12-14T13:23:35Z</time>
      </trkpt>
      <trkpt lat="42.9927" lon="-0.09626">
        <ele>487.05</ele>
        <time>2013-12-14T13:23:49Z</time>
      </trkpt>
      <trkpt lat="42.99237" lon="-0.09619">
        <ele>488.01</ele>
        <time>2013-12-14T13:24:01Z</time>
      </trkpt>
      <trkpt lat="42.99198" lon="-0.09602">
        <ele>490.41</ele>
        <time>2013-12-14T13:24:17Z</time>
      </trkpt>
      <trkpt lat="42.99162" lon="-0.09566">
        <ele>490.89</ele>
        <time>2013-12-14T13:24:33Z</time>
      </trkpt>
      <trkpt lat="42.99125" lon="-0.09549">
        <ele>492.81</ele>
        <time>2013-12-14T13:24:47Z</time>
      </trkpt>
      <trkpt lat="42.99085" lon="-0.09547">
        <ele>495.7</ele>
        <time>2013-12-14T13:25:02Z</time>
      </trkpt>
      <trkpt lat="42.99032" lon="-0.09542">
        <ele>496.18</ele>
        <time>2013-12-14T13:25:20Z</time>
      </trkpt>
      <trkpt lat="42.98974" lon="-0.09548">
        <ele>496.66</ele>
        <time>2013-12-14T13:25:39Z</time>
      </trkpt>
      <trkpt lat="42.98914" lon="-0.09559">
        <ele>494.26</ele>
        <time>2013-12-14T13:25:53Z</time>
      </trkpt>
      <trkpt lat="42.98844" lon="-0.09565">
        <ele>494.26</ele>
        <time>2013-12-14T13:26:07Z</time>
      </trkpt>
      <trkpt lat="42.98782" lon="-0.09588">
        <ele>496.18</ele>
        <time>2013-12-14T13:26:24Z</time>
      </trkpt>
      <trkpt lat="42.98748" lon="-0.09605">
        <ele>499.54</ele>
        <time>2013-12-14T13:26:37Z</time>
      </trkpt>
      <trkpt lat="42.98712" lon="-0.0961">
        <ele>501.46</ele>
        <time>2013-12-14T13:26:51Z</time>
      </trkpt>
      <trkpt lat="42.98704" lon="-0.09611">
        <ele>501.95</ele>
        <time>2013-12-14T13:26:54Z</time>
      </trkpt>
      <trkpt lat="42.98669" lon="-0.09593">
        <ele>504.35</ele>
        <time>2013-12-14T13:27:08Z</time>
      </trkpt>
      <trkpt lat="42.98636" lon="-0.09571">
        <ele>507.71</ele>
        <time>2013-12-14T13:27:22Z</time>
      </trkpt>
      <trkpt lat="42.98606" lon="-0.09551">
        <ele>509.64</ele>
        <time>2013-12-14T13:27:35Z</time>
      </trkpt>
      <trkpt lat="42.98582" lon="-0.09537">
        <ele>511.08</ele>
        <time>2013-12-14T13:27:46Z</time>
      </trkpt>
      <trkpt lat="42.98549" lon="-0.09522">
        <ele>512.52</ele>
        <time>2013-12-14T13:28:00Z</time>
      </trkpt>
      <trkpt lat="42.98509" lon="-0.09515">
        <ele>515.4</ele>
        <time>2013-12-14T13:28:16Z</time>
      </trkpt>
      <trkpt lat="42.98474" lon="-0.09508">
        <ele>518.29</ele>
        <time>2013-12-14T13:28:30Z</time>
      </trkpt>
      <trkpt lat="42.98441" lon="-0.0949">
        <ele>520.21</ele>
        <time>2013-12-14T13:28:44Z</time>
      </trkpt>
      <trkpt lat="42.9842" lon="-0.09465">
        <ele>521.65</ele>
        <time>2013-12-14T13:28:55Z</time>
      </trkpt>
      <trkpt lat="42.98393" lon="-0.09426">
        <ele>523.58</ele>
        <time>2013-12-14T13:29:09Z</time>
      </trkpt>
      <trkpt lat="42.98383" lon="-0.09407">
        <ele>524.54</ele>
        <time>2013-12-14T13:29:19Z</time>
      </trkpt>
      <trkpt lat="42.98382" lon="-0.09405">
        <ele>524.06</ele>
        <time>2013-12-14T13:29:24Z</time>
      </trkpt>
      <trkpt lat="42.98382" lon="-0.09399">
        <ele>524.54</ele>
        <time>2013-12-14T13:29:27Z</time>
      </trkpt>
      <trkpt lat="42.98372" lon="-0.09387">
        <ele>525.02</ele>
        <time>2013-12-14T13:29:38Z</time>
      </trkpt>
      <trkpt lat="42.98364" lon="-0.09384">
        <ele>526.46</ele>
        <time>2013-12-14T13:29:44Z</time>
      </trkpt>
      <trkpt lat="42.98358" lon="-0.09383">
        <ele>527.42</ele>
        <time>2013-12-14T13:29:48Z</time>
      </trkpt>
      <trkpt lat="42.98349" lon="-0.09375">
        <ele>530.79</ele>
        <time>2013-12-14T13:29:56Z</time>
      </trkpt>
      <trkpt lat="42.98347" lon="-0.09372">
        <ele>531.75</ele>
        <time>2013-12-14T13:29:59Z</time>
      </trkpt>
      <trkpt lat="42.98342" lon="-0.09369">
        <ele>534.15</ele>
        <time>2013-12-14T13:30:03Z</time>
      </trkpt>
      <trkpt lat="42.98324" lon="-0.09362">
        <ele>537.51</ele>
        <time>2013-12-14T13:30:15Z</time>
      </trkpt>
      <trkpt lat="42.98314" lon="-0.09358">
        <ele>540.88</ele>
        <time>2013-12-14T13:30:23Z</time>
      </trkpt>
      <trkpt lat="42.98313" lon="-0.09357">
        <ele>541.36</ele>
        <time>2013-12-14T13:30:24Z</time>
      </trkpt>
      <trkpt lat="42.98311" lon="-0.09353">
        <ele>541.84</ele>
        <time>2013-12-14T13:30:35Z</time>
      </trkpt>
      <trkpt lat="42.98303" lon="-0.09347">
        <ele>544.72</ele>
        <time>2013-12-14T13:30:49Z</time>
      </trkpt>
      <trkpt lat="42.98302" lon="-0.09346">
        <ele>545.2</ele>
        <time>2013-12-14T13:30:59Z</time>
      </trkpt>
      <trkpt lat="42.983" lon="-0.09343">
        <ele>546.17</ele>
        <time>2013-12-14T13:31:02Z</time>
      </trkpt>
      <trkpt lat="42.98295" lon="-0.09334">
        <ele>549.05</ele>
        <time>2013-12-14T13:31:09Z</time>
      </trkpt>
      <trkpt lat="42.98293" lon="-0.0933">
        <ele>549.53</ele>
        <time>2013-12-14T13:31:12Z</time>
      </trkpt>
      <trkpt lat="42.98283" lon="-0.0932">
        <ele>551.93</ele>
        <time>2013-12-14T13:31:24Z</time>
      </trkpt>
      <trkpt lat="42.98273" lon="-0.09316">
        <ele>552.41</ele>
        <time>2013-12-14T13:31:35Z</time>
      </trkpt>
      <trkpt lat="42.98272" lon="-0.09317">
        <ele>552.9</ele>
        <time>2013-12-14T13:31:36Z</time>
      </trkpt>
      <trkpt lat="42.98267" lon="-0.09317">
        <ele>552.9</ele>
        <time>2013-12-14T13:31:39Z</time>
      </trkpt>
      <trkpt lat="42.98262" lon="-0.09317">
        <ele>553.38</ele>
        <time>2013-12-14T13:31:43Z</time>
      </trkpt>
      <trkpt lat="42.98255" lon="-0.09318">
        <ele>553.86</ele>
        <time>2013-12-14T13:31:48Z</time>
      </trkpt>
      <trkpt lat="42.9824" lon="-0.09315">
        <ele>555.3</ele>
        <time>2013-12-14T13:32:01Z</time>
      </trkpt>
      <trkpt lat="42.98246" lon="-0.09313">
        <ele>555.78</ele>
        <time>2013-12-14T13:32:12Z</time>
      </trkpt>
      <trkpt lat="42.98245" lon="-0.0931">
        <ele>556.26</ele>
        <time>2013-12-14T13:32:19Z</time>
      </trkpt>
      <trkpt lat="42.98234" lon="-0.09317">
        <ele>554.82</ele>
        <time>2013-12-14T13:32:25Z</time>
      </trkpt>
      <trkpt lat="42.98222" lon="-0.09345">
        <ele>551.45</ele>
        <time>2013-12-14T13:32:32Z</time>
      </trkpt>
      <trkpt lat="42.98219" lon="-0.09372">
        <ele>551.45</ele>
        <time>2013-12-14T13:32:38Z</time>
      </trkpt>
      <trkpt lat="42.98207" lon="-0.094">
        <ele>551.93</ele>
        <time>2013-12-14T13:32:46Z</time>
      </trkpt>
      <trkpt lat="42.98204" lon="-0.0941">
        <ele>553.38</ele>
        <time>2013-12-14T13:32:51Z</time>
      </trkpt>
      <trkpt lat="42.98199" lon="-0.09416">
        <ele>554.34</ele>
        <time>2013-12-14T13:32:57Z</time>
      </trkpt>
      <trkpt lat="42.98197" lon="-0.09419">
        <ele>554.82</ele>
        <time>2013-12-14T13:32:59Z</time>
      </trkpt>
      <trkpt lat="42.98192" lon="-0.09426">
        <ele>556.74</ele>
        <time>2013-12-14T13:33:09Z</time>
      </trkpt>
      <trkpt lat="42.98188" lon="-0.09429">
        <ele>558.18</ele>
        <time>2013-12-14T13:33:16Z</time>
      </trkpt>
      <trkpt lat="42.98181" lon="-0.09441">
        <ele>561.07</ele>
        <time>2013-12-14T13:33:30Z</time>
      </trkpt>
      <trkpt lat="42.98181" lon="-0.09441">
        <ele>561.55</ele>
        <time>2013-12-14T13:33:32Z</time>
      </trkpt>
      <trkpt lat="42.98176" lon="-0.0945">
        <ele>563.47</ele>
        <time>2013-12-14T13:33:44Z</time>
      </trkpt>
      <trkpt lat="42.9817" lon="-0.0946">
        <ele>566.35</ele>
        <time>2013-12-14T13:33:56Z</time>
      </trkpt>
      <trkpt lat="42.9817" lon="-0.09462">
        <ele>566.35</ele>
        <time>2013-12-14T13:33:57Z</time>
      </trkpt>
      <trkpt lat="42.98171" lon="-0.09462">
        <ele>566.83</ele>
        <time>2013-12-14T13:34:08Z</time>
      </trkpt>
      <trkpt lat="42.98171" lon="-0.09464">
        <ele>566.83</ele>
        <time>2013-12-14T13:34:28Z</time>
      </trkpt>
      <trkpt lat="42.98184" lon="-0.09469">
        <ele>567.8</ele>
        <time>2013-12-14T13:34:39Z</time>
      </trkpt>
      <trkpt lat="42.98186" lon="-0.09468">
        <ele>567.8</ele>
        <time>2013-12-14T13:34:41Z</time>
      </trkpt>
      <trkpt lat="42.98214" lon="-0.09474">
        <ele>569.72</ele>
        <time>2013-12-14T13:34:57Z</time>
      </trkpt>
      <trkpt lat="42.98232" lon="-0.09482">
        <ele>570.2</ele>
        <time>2013-12-14T13:35:08Z</time>
      </trkpt>
      <trkpt lat="42.98256" lon="-0.09499">
        <ele>572.12</ele>
        <time>2013-12-14T13:35:23Z</time>
      </trkpt>
      <trkpt lat="42.98281" lon="-0.09524">
        <ele>574.04</ele>
        <time>2013-12-14T13:35:38Z</time>
      </trkpt>
      <trkpt lat="42.98308" lon="-0.09544">
        <ele>576.45</ele>
        <time>2013-12-14T13:35:54Z</time>
      </trkpt>
      <trkpt lat="42.98331" lon="-0.09568">
        <ele>578.37</ele>
        <time>2013-12-14T13:36:09Z</time>
      </trkpt>
      <trkpt lat="42.98345" lon="-0.09604">
        <ele>580.77</ele>
        <time>2013-12-14T13:36:25Z</time>
      </trkpt>
      <trkpt lat="42.98357" lon="-0.09633">
        <ele>582.22</ele>
        <time>2013-12-14T13:36:38Z</time>
      </trkpt>
      <trkpt lat="42.98373" lon="-0.0967">
        <ele>584.62</ele>
        <time>2013-12-14T13:36:55Z</time>
      </trkpt>
      <trkpt lat="42.98377" lon="-0.09682">
        <ele>585.1</ele>
        <time>2013-12-14T13:37:00Z</time>
      </trkpt>
      <trkpt lat="42.98381" lon="-0.09694">
        <ele>585.58</ele>
        <time>2013-12-14T13:37:05Z</time>
      </trkpt>
      <trkpt lat="42.98396" lon="-0.09729">
        <ele>587.98</ele>
        <time>2013-12-14T13:37:19Z</time>
      </trkpt>
      <trkpt lat="42.98406" lon="-0.09762">
        <ele>589.91</ele>
        <time>2013-12-14T13:37:31Z</time>
      </trkpt>
      <trkpt lat="42.98419" lon="-0.09792">
        <ele>591.83</ele>
        <time>2013-12-14T13:37:43Z</time>
      </trkpt>
      <trkpt lat="42.98444" lon="-0.09829">
        <ele>593.75</ele>
        <time>2013-12-14T13:37:59Z</time>
      </trkpt>
      <trkpt lat="42.98462" lon="-0.09861">
        <ele>594.23</ele>
        <time>2013-12-14T13:38:12Z</time>
      </trkpt>
      <trkpt lat="42.98482" lon="-0.09902">
        <ele>595.19</ele>
        <time>2013-12-14T13:38:26Z</time>
      </trkpt>
      <trkpt lat="42.98504" lon="-0.09944">
        <ele>595.67</ele>
        <time>2013-12-14T13:38:41Z</time>
      </trkpt>
      <trkpt lat="42.98528" lon="-0.09988">
        <ele>596.64</ele>
        <time>2013-12-14T13:38:54Z</time>
      </trkpt>
      <trkpt lat="42.98557" lon="-0.10053">
        <ele>597.12</ele>
        <time>2013-12-14T13:39:11Z</time>
      </trkpt>
      <trkpt lat="42.98581" lon="-0.10123">
        <ele>600</ele>
        <time>2013-12-14T13:39:30Z</time>
      </trkpt>
      <trkpt lat="42.98596" lon="-0.10163">
        <ele>602.4</ele>
        <time>2013-12-14T13:39:44Z</time>
      </trkpt>
      <trkpt lat="42.98599" lon="-0.10205">
        <ele>605.29</ele>
        <time>2013-12-14T13:39:58Z</time>
      </trkpt>
      <trkpt lat="42.98606" lon="-0.10253">
        <ele>608.65</ele>
        <time>2013-12-14T13:40:14Z</time>
      </trkpt>
      <trkpt lat="42.98608" lon="-0.10301">
        <ele>611.54</ele>
        <time>2013-12-14T13:40:30Z</time>
      </trkpt>
      <trkpt lat="42.98608" lon="-0.1034">
        <ele>614.42</ele>
        <time>2013-12-14T13:40:44Z</time>
      </trkpt>
      <trkpt lat="42.98607" lon="-0.10382">
        <ele>617.3</ele>
        <time>2013-12-14T13:40:59Z</time>
      </trkpt>
      <trkpt lat="42.98609" lon="-0.10403">
        <ele>618.26</ele>
        <time>2013-12-14T13:41:08Z</time>
      </trkpt>
      <trkpt lat="42.98611" lon="-0.10415">
        <ele>619.23</ele>
        <time>2013-12-14T13:41:13Z</time>
      </trkpt>
      <trkpt lat="42.98615" lon="-0.10432">
        <ele>620.67</ele>
        <time>2013-12-14T13:41:20Z</time>
      </trkpt>
      <trkpt lat="42.98632" lon="-0.10473">
        <ele>624.03</ele>
        <time>2013-12-14T13:41:37Z</time>
      </trkpt>
      <trkpt lat="42.98652" lon="-0.10499">
        <ele>626.44</ele>
        <time>2013-12-14T13:41:51Z</time>
      </trkpt>
      <trkpt lat="42.98672" lon="-0.10525">
        <ele>627.88</ele>
        <time>2013-12-14T13:42:05Z</time>
      </trkpt>
      <trkpt lat="42.98693" lon="-0.10547">
        <ele>631.24</ele>
        <time>2013-12-14T13:42:19Z</time>
      </trkpt>
      <trkpt lat="42.98703" lon="-0.10565">
        <ele>632.2</ele>
        <time>2013-12-14T13:42:28Z</time>
      </trkpt>
      <trkpt lat="42.98708" lon="-0.10572">
        <ele>632.68</ele>
        <time>2013-12-14T13:42:32Z</time>
      </trkpt>
      <trkpt lat="42.98724" lon="-0.10604">
        <ele>634.13</ele>
        <time>2013-12-14T13:42:46Z</time>
      </trkpt>
      <trkpt lat="42.98741" lon="-0.10632">
        <ele>634.61</ele>
        <time>2013-12-14T13:42:59Z</time>
      </trkpt>
      <trkpt lat="42.98746" lon="-0.10641">
        <ele>634.61</ele>
        <time>2013-12-14T13:43:03Z</time>
      </trkpt>
      <trkpt lat="42.98751" lon="-0.10688">
        <ele>633.65</ele>
        <time>2013-12-14T13:43:18Z</time>
      </trkpt>
      <trkpt lat="42.9874" lon="-0.10732">
        <ele>633.17</ele>
        <time>2013-12-14T13:43:30Z</time>
      </trkpt>
      <trkpt lat="42.98719" lon="-0.10778">
        <ele>633.17</ele>
        <time>2013-12-14T13:43:44Z</time>
      </trkpt>
      <trkpt lat="42.9869" lon="-0.1081">
        <ele>634.13</ele>
        <time>2013-12-14T13:43:58Z</time>
      </trkpt>
      <trkpt lat="42.98656" lon="-0.10845">
        <ele>635.09</ele>
        <time>2013-12-14T13:44:12Z</time>
      </trkpt>
      <trkpt lat="42.98634" lon="-0.10897">
        <ele>635.09</ele>
        <time>2013-12-14T13:44:26Z</time>
      </trkpt>
      <trkpt lat="42.9863" lon="-0.10962">
        <ele>636.05</ele>
        <time>2013-12-14T13:44:40Z</time>
      </trkpt>
      <trkpt lat="42.98638" lon="-0.11036">
        <ele>637.01</ele>
        <time>2013-12-14T13:44:56Z</time>
      </trkpt>
      <trkpt lat="42.98649" lon="-0.11104">
        <ele>639.89</ele>
        <time>2013-12-14T13:45:13Z</time>
      </trkpt>
      <trkpt lat="42.98654" lon="-0.11176">
        <ele>641.82</ele>
        <time>2013-12-14T13:45:30Z</time>
      </trkpt>
      <trkpt lat="42.98655" lon="-0.11252">
        <ele>643.26</ele>
        <time>2013-12-14T13:45:47Z</time>
      </trkpt>
      <trkpt lat="42.98651" lon="-0.11339">
        <ele>643.74</ele>
        <time>2013-12-14T13:46:05Z</time>
      </trkpt>
      <trkpt lat="42.9864" lon="-0.11406">
        <ele>643.74</ele>
        <time>2013-12-14T13:46:19Z</time>
      </trkpt>
      <trkpt lat="42.9862" lon="-0.11472">
        <ele>644.22</ele>
        <time>2013-12-14T13:46:34Z</time>
      </trkpt>
      <trkpt lat="42.98605" lon="-0.11526">
        <ele>644.7</ele>
        <time>2013-12-14T13:46:46Z</time>
      </trkpt>
      <trkpt lat="42.98581" lon="-0.11568">
        <ele>645.66</ele>
        <time>2013-12-14T13:46:58Z</time>
      </trkpt>
      <trkpt lat="42.98549" lon="-0.11581">
        <ele>647.59</ele>
        <time>2013-12-14T13:47:10Z</time>
      </trkpt>
      <trkpt lat="42.98509" lon="-0.11614">
        <ele>649.99</ele>
        <time>2013-12-14T13:47:27Z</time>
      </trkpt>
      <trkpt lat="42.98486" lon="-0.11659">
        <ele>650.47</ele>
        <time>2013-12-14T13:47:40Z</time>
      </trkpt>
      <trkpt lat="42.98476" lon="-0.11706">
        <ele>652.39</ele>
        <time>2013-12-14T13:47:53Z</time>
      </trkpt>
      <trkpt lat="42.98466" lon="-0.11742">
        <ele>654.31</ele>
        <time>2013-12-14T13:48:05Z</time>
      </trkpt>
      <trkpt lat="42.9845" lon="-0.11774">
        <ele>656.72</ele>
        <time>2013-12-14T13:48:18Z</time>
      </trkpt>
      <trkpt lat="42.98436" lon="-0.118">
        <ele>659.6</ele>
        <time>2013-12-14T13:48:29Z</time>
      </trkpt>
      <trkpt lat="42.98422" lon="-0.11829">
        <ele>662.97</ele>
        <time>2013-12-14T13:48:42Z</time>
      </trkpt>
      <trkpt lat="42.9841" lon="-0.11855">
        <ele>666.33</ele>
        <time>2013-12-14T13:48:54Z</time>
      </trkpt>
      <trkpt lat="42.98398" lon="-0.1188">
        <ele>669.7</ele>
        <time>2013-12-14T13:49:05Z</time>
      </trkpt>
      <trkpt lat="42.98386" lon="-0.11903">
        <ele>672.58</ele>
        <time>2013-12-14T13:49:16Z</time>
      </trkpt>
      <trkpt lat="42.98373" lon="-0.11938">
        <ele>674.5</ele>
        <time>2013-12-14T13:49:29Z</time>
      </trkpt>
      <trkpt lat="42.98353" lon="-0.11972">
        <ele>676.91</ele>
        <time>2013-12-14T13:49:44Z</time>
      </trkpt>
      <trkpt lat="42.98336" lon="-0.12004">
        <ele>678.35</ele>
        <time>2013-12-14T13:49:56Z</time>
      </trkpt>
      <trkpt lat="42.98312" lon="-0.12055">
        <ele>677.87</ele>
        <time>2013-12-14T13:50:11Z</time>
      </trkpt>
      <trkpt lat="42.98297" lon="-0.12115">
        <ele>678.35</ele>
        <time>2013-12-14T13:50:26Z</time>
      </trkpt>
      <trkpt lat="42.983" lon="-0.1217">
        <ele>679.79</ele>
        <time>2013-12-14T13:50:40Z</time>
      </trkpt>
      <trkpt lat="42.98304" lon="-0.12214">
        <ele>682.67</ele>
        <time>2013-12-14T13:50:52Z</time>
      </trkpt>
      <trkpt lat="42.9831" lon="-0.1227">
        <ele>685.08</ele>
        <time>2013-12-14T13:51:07Z</time>
      </trkpt>
      <trkpt lat="42.98311" lon="-0.12305">
        <ele>687.96</ele>
        <time>2013-12-14T13:51:18Z</time>
      </trkpt>
      <trkpt lat="42.98311" lon="-0.12351">
        <ele>687.96</ele>
        <time>2013-12-14T13:51:31Z</time>
      </trkpt>
      <trkpt lat="42.98305" lon="-0.12409">
        <ele>686.52</ele>
        <time>2013-12-14T13:51:43Z</time>
      </trkpt>
      <trkpt lat="42.98315" lon="-0.12459">
        <ele>686.52</ele>
        <time>2013-12-14T13:51:55Z</time>
      </trkpt>
      <trkpt lat="42.98323" lon="-0.12501">
        <ele>685.56</ele>
        <time>2013-12-14T13:52:05Z</time>
      </trkpt>
      <trkpt lat="42.9833" lon="-0.12554">
        <ele>681.71</ele>
        <time>2013-12-14T13:52:12Z</time>
      </trkpt>
      <trkpt lat="42.98331" lon="-0.12602">
        <ele>678.35</ele>
        <time>2013-12-14T13:52:16Z</time>
      </trkpt>
      <trkpt lat="42.9833" lon="-0.12613">
        <ele>677.87</ele>
        <time>2013-12-14T13:52:17Z</time>
      </trkpt>
      <trkpt lat="42.98316" lon="-0.12655">
        <ele>676.91</ele>
        <time>2013-12-14T13:52:21Z</time>
      </trkpt>
      <trkpt lat="42.98301" lon="-0.12683">
        <ele>675.46</ele>
        <time>2013-12-14T13:52:24Z</time>
      </trkpt>
      <trkpt lat="42.98297" lon="-0.12693">
        <ele>675.46</ele>
        <time>2013-12-14T13:52:25Z</time>
      </trkpt>
      <trkpt lat="42.98277" lon="-0.1276">
        <ele>672.1</ele>
        <time>2013-12-14T13:52:31Z</time>
      </trkpt>
      <trkpt lat="42.98268" lon="-0.12809">
        <ele>670.18</ele>
        <time>2013-12-14T13:52:35Z</time>
      </trkpt>
      <trkpt lat="42.98252" lon="-0.12926">
        <ele>671.14</ele>
        <time>2013-12-14T13:52:46Z</time>
      </trkpt>
      <trkpt lat="42.98241" lon="-0.12967">
        <ele>673.54</ele>
        <time>2013-12-14T13:52:53Z</time>
      </trkpt>
      <trkpt lat="42.98226" lon="-0.12998">
        <ele>674.02</ele>
        <time>2013-12-14T13:52:59Z</time>
      </trkpt>
      <trkpt lat="42.98219" lon="-0.1302">
        <ele>674.98</ele>
        <time>2013-12-14T13:53:03Z</time>
      </trkpt>
      <trkpt lat="42.98214" lon="-0.1308">
        <ele>676.91</ele>
        <time>2013-12-14T13:53:16Z</time>
      </trkpt>
      <trkpt lat="42.98213" lon="-0.13094">
        <ele>677.39</ele>
        <time>2013-12-14T13:53:19Z</time>
      </trkpt>
      <trkpt lat="42.98206" lon="-0.13136">
        <ele>679.79</ele>
        <time>2013-12-14T13:53:29Z</time>
      </trkpt>
      <trkpt lat="42.98181" lon="-0.13148">
        <ele>680.75</ele>
        <time>2013-12-14T13:53:40Z</time>
      </trkpt>
      <trkpt lat="42.98151" lon="-0.13174">
        <ele>682.19</ele>
        <time>2013-12-14T13:53:52Z</time>
      </trkpt>
      <trkpt lat="42.98131" lon="-0.13227">
        <ele>683.15</ele>
        <time>2013-12-14T13:54:07Z</time>
      </trkpt>
      <trkpt lat="42.98114" lon="-0.13262">
        <ele>683.63</ele>
        <time>2013-12-14T13:54:18Z</time>
      </trkpt>
      <trkpt lat="42.98089" lon="-0.13303">
        <ele>685.08</ele>
        <time>2013-12-14T13:54:32Z</time>
      </trkpt>
      <trkpt lat="42.98082" lon="-0.1335">
        <ele>685.56</ele>
        <time>2013-12-14T13:54:46Z</time>
      </trkpt>
      <trkpt lat="42.98104" lon="-0.13373">
        <ele>684.12</ele>
        <time>2013-12-14T13:54:54Z</time>
      </trkpt>
      <trkpt lat="42.98148" lon="-0.13434">
        <ele>681.23</ele>
        <time>2013-12-14T13:55:06Z</time>
      </trkpt>
      <trkpt lat="42.98168" lon="-0.13462">
        <ele>680.75</ele>
        <time>2013-12-14T13:55:12Z</time>
      </trkpt>
      <trkpt lat="42.98183" lon="-0.13477">
        <ele>679.31</ele>
        <time>2013-12-14T13:55:16Z</time>
      </trkpt>
      <trkpt lat="42.98191" lon="-0.13483">
        <ele>679.31</ele>
        <time>2013-12-14T13:55:18Z</time>
      </trkpt>
      <trkpt lat="42.98215" lon="-0.13492">
        <ele>676.42</ele>
        <time>2013-12-14T13:55:24Z</time>
      </trkpt>
      <trkpt lat="42.98225" lon="-0.13496">
        <ele>673.06</ele>
        <time>2013-12-14T13:55:28Z</time>
      </trkpt>
      <trkpt lat="42.98229" lon="-0.13502">
        <ele>671.14</ele>
        <time>2013-12-14T13:55:30Z</time>
      </trkpt>
      <trkpt lat="42.98232" lon="-0.13498">
        <ele>666.81</ele>
        <time>2013-12-14T13:55:35Z</time>
      </trkpt>
      <trkpt lat="42.98231" lon="-0.13496">
        <ele>666.81</ele>
        <time>2013-12-14T13:55:36Z</time>
      </trkpt>
      <trkpt lat="42.9823" lon="-0.13483">
        <ele>662.97</ele>
        <time>2013-12-14T13:55:40Z</time>
      </trkpt>
      <trkpt lat="42.98227" lon="-0.13471">
        <ele>660.08</ele>
        <time>2013-12-14T13:55:43Z</time>
      </trkpt>
      <trkpt lat="42.98226" lon="-0.13467">
        <ele>659.6</ele>
        <time>2013-12-14T13:55:44Z</time>
      </trkpt>
      <trkpt lat="42.98228" lon="-0.13462">
        <ele>657.68</ele>
        <time>2013-12-14T13:55:47Z</time>
      </trkpt>
      <trkpt lat="42.98235" lon="-0.13462">
        <ele>653.35</ele>
        <time>2013-12-14T13:55:52Z</time>
      </trkpt>
      <trkpt lat="42.98243" lon="-0.13457">
        <ele>649.51</ele>
        <time>2013-12-14T13:55:56Z</time>
      </trkpt>
      <trkpt lat="42.98245" lon="-0.13454">
        <ele>649.03</ele>
        <time>2013-12-14T13:55:57Z</time>
      </trkpt>
      <trkpt lat="42.98252" lon="-0.13435">
        <ele>644.22</ele>
        <time>2013-12-14T13:56:02Z</time>
      </trkpt>
      <trkpt lat="42.98262" lon="-0.13422">
        <ele>640.38</ele>
        <time>2013-12-14T13:56:06Z</time>
      </trkpt>
      <trkpt lat="42.98271" lon="-0.13407">
        <ele>636.53</ele>
        <time>2013-12-14T13:56:10Z</time>
      </trkpt>
      <trkpt lat="42.98271" lon="-0.13405">
        <ele>636.05</ele>
        <time>2013-12-14T13:56:11Z</time>
      </trkpt>
      <trkpt lat="42.98278" lon="-0.13394">
        <ele>635.09</ele>
        <time>2013-12-14T13:56:12Z</time>
      </trkpt>
      <trkpt lat="42.98286" lon="-0.13383">
        <ele>634.61</ele>
        <time>2013-12-14T13:56:14Z</time>
      </trkpt>
      <trkpt lat="42.98299" lon="-0.13362">
        <ele>633.17</ele>
        <time>2013-12-14T13:56:17Z</time>
      </trkpt>
      <trkpt lat="42.98317" lon="-0.13343">
        <ele>630.76</ele>
        <time>2013-12-14T13:56:21Z</time>
      </trkpt>
      <trkpt lat="42.98334" lon="-0.13324">
        <ele>628.36</ele>
        <time>2013-12-14T13:56:26Z</time>
      </trkpt>
      <trkpt lat="42.98343" lon="-0.13315">
        <ele>626.92</ele>
        <time>2013-12-14T13:56:28Z</time>
      </trkpt>
      <trkpt lat="42.98362" lon="-0.13289">
        <ele>622.59</ele>
        <time>2013-12-14T13:56:34Z</time>
      </trkpt>
      <trkpt lat="42.98368" lon="-0.13276">
        <ele>620.67</ele>
        <time>2013-12-14T13:56:37Z</time>
      </trkpt>
      <trkpt lat="42.98368" lon="-0.13272">
        <ele>620.19</ele>
        <time>2013-12-14T13:56:38Z</time>
      </trkpt>
      <trkpt lat="42.98379" lon="-0.1326">
        <ele>617.78</ele>
        <time>2013-12-14T13:56:41Z</time>
      </trkpt>
      <trkpt lat="42.98397" lon="-0.13245">
        <ele>614.42</ele>
        <time>2013-12-14T13:56:45Z</time>
      </trkpt>
      <trkpt lat="42.98422" lon="-0.13226">
        <ele>611.54</ele>
        <time>2013-12-14T13:56:50Z</time>
      </trkpt>
      <trkpt lat="42.98431" lon="-0.13211">
        <ele>609.61</ele>
        <time>2013-12-14T13:56:53Z</time>
      </trkpt>
      <trkpt lat="42.9845" lon="-0.132">
        <ele>606.25</ele>
        <time>2013-12-14T13:56:57Z</time>
      </trkpt>
      <trkpt lat="42.98466" lon="-0.13189">
        <ele>603.36</ele>
        <time>2013-12-14T13:57:00Z</time>
      </trkpt>
      <trkpt lat="42.98486" lon="-0.13169">
        <ele>598.56</ele>
        <time>2013-12-14T13:57:04Z</time>
      </trkpt>
      <trkpt lat="42.9849" lon="-0.13162">
        <ele>598.56</ele>
        <time>2013-12-14T13:57:05Z</time>
      </trkpt>
      <trkpt lat="42.9851" lon="-0.13125">
        <ele>597.6</ele>
        <time>2013-12-14T13:57:11Z</time>
      </trkpt>
      <trkpt lat="42.98516" lon="-0.13119">
        <ele>597.6</ele>
        <time>2013-12-14T13:57:22Z</time>
      </trkpt>
      <trkpt lat="42.98517" lon="-0.13117">
        <ele>597.6</ele>
        <time>2013-12-14T13:57:54Z</time>
      </trkpt>
      <trkpt lat="42.98516" lon="-0.13116">
        <ele>597.6</ele>
        <time>2013-12-14T13:58:17Z</time>
      </trkpt>
      <trkpt lat="42.98517" lon="-0.13115">
        <ele>597.12</ele>
        <time>2013-12-14T13:58:45Z</time>
      </trkpt>
      <trkpt lat="42.98516" lon="-0.13114">
        <ele>597.6</ele>
        <time>2013-12-14T13:59:14Z</time>
      </trkpt>
      <trkpt lat="42.98516" lon="-0.13114">
        <ele>598.56</ele>
        <time>2013-12-14T13:59:31Z</time>
      </trkpt>
      <trkpt lat="42.98516" lon="-0.13114">
        <ele>598.08</ele>
        <time>2013-12-14T13:59:49Z</time>
      </trkpt>
      <trkpt lat="42.98515" lon="-0.13117">
        <ele>598.56</ele>
        <time>2013-12-14T14:00:17Z</time>
      </trkpt>
      <trkpt lat="42.98515" lon="-0.13116">
        <ele>598.56</ele>
        <time>2013-12-14T14:00:48Z</time>
      </trkpt>
      <trkpt lat="42.98516" lon="-0.13116">
        <ele>598.56</ele>
        <time>2013-12-14T14:01:03Z</time>
      </trkpt>
      <trkpt lat="42.98515" lon="-0.13117">
        <ele>599.04</ele>
        <time>2013-12-14T14:01:38Z</time>
      </trkpt>
      <trkpt lat="42.98515" lon="-0.13117">
        <ele>599.04</ele>
        <time>2013-12-14T14:02:09Z</time>
      </trkpt>
      <trkpt lat="42.98516" lon="-0.13119">
        <ele>599.52</ele>
        <time>2013-12-14T14:02:43Z</time>
      </trkpt>
      <trkpt lat="42.98517" lon="-0.1312">
        <ele>599.04</ele>
        <time>2013-12-14T14:03:18Z</time>
      </trkpt>
      <trkpt lat="42.98516" lon="-0.13121">
        <ele>600</ele>
        <time>2013-12-14T14:03:51Z</time>
      </trkpt>
      <trkpt lat="42.98516" lon="-0.13122">
        <ele>599.52</ele>
        <time>2013-12-14T14:04:22Z</time>
      </trkpt>
      <trkpt lat="42.98516" lon="-0.1312">
        <ele>600</ele>
        <time>2013-12-14T14:04:48Z</time>
      </trkpt>
      <trkpt lat="42.98516" lon="-0.13118">
        <ele>600.48</ele>
        <time>2013-12-14T14:05:14Z</time>
      </trkpt>
      <trkpt lat="42.98515" lon="-0.1312">
        <ele>600.48</ele>
        <time>2013-12-14T14:05:51Z</time>
      </trkpt>
      <trkpt lat="42.98516" lon="-0.13118">
        <ele>600.48</ele>
        <time>2013-12-14T14:06:29Z</time>
      </trkpt>
      <trkpt lat="42.98517" lon="-0.13115">
        <ele>600.96</ele>
        <time>2013-12-14T14:06:40Z</time>
      </trkpt>
      <trkpt lat="42.98523" lon="-0.13112">
        <ele>600.48</ele>
        <time>2013-12-14T14:06:45Z</time>
      </trkpt>
      <trkpt lat="42.98542" lon="-0.13123">
        <ele>600.96</ele>
        <time>2013-12-14T14:06:57Z</time>
      </trkpt>
      <trkpt lat="42.98545" lon="-0.13129">
        <ele>601.92</ele>
        <time>2013-12-14T14:07:01Z</time>
      </trkpt>
      <trkpt lat="42.98551" lon="-0.13134">
        <ele>604.33</ele>
        <time>2013-12-14T14:07:13Z</time>
      </trkpt>
      <trkpt lat="42.98552" lon="-0.13132">
        <ele>604.81</ele>
        <time>2013-12-14T14:07:15Z</time>
      </trkpt>
      <trkpt lat="42.98555" lon="-0.13116">
        <ele>607.21</ele>
        <time>2013-12-14T14:07:25Z</time>
      </trkpt>
      <trkpt lat="42.98559" lon="-0.13096">
        <ele>609.61</ele>
        <time>2013-12-14T14:07:35Z</time>
      </trkpt>
      <trkpt lat="42.98561" lon="-0.13083">
        <ele>611.06</ele>
        <time>2013-12-14T14:07:41Z</time>
      </trkpt>
      <trkpt lat="42.98566" lon="-0.13068">
        <ele>612.5</ele>
        <time>2013-12-14T14:07:49Z</time>
      </trkpt>
      <trkpt lat="42.98574" lon="-0.13046">
        <ele>614.9</ele>
        <time>2013-12-14T14:08:04Z</time>
      </trkpt>
      <trkpt lat="42.98574" lon="-0.13044">
        <ele>614.9</ele>
        <time>2013-12-14T14:08:17Z</time>
      </trkpt>
      <trkpt lat="42.98575" lon="-0.13042">
        <ele>614.9</ele>
        <time>2013-12-14T14:08:19Z</time>
      </trkpt>
      <trkpt lat="42.98577" lon="-0.13029">
        <ele>616.34</ele>
        <time>2013-12-14T14:08:28Z</time>
      </trkpt>
      <trkpt lat="42.9858" lon="-0.13016">
        <ele>617.78</ele>
        <time>2013-12-14T14:08:35Z</time>
      </trkpt>
      <trkpt lat="42.98587" lon="-0.12997">
        <ele>621.15</ele>
        <time>2013-12-14T14:08:44Z</time>
      </trkpt>
      <trkpt lat="42.98589" lon="-0.12993">
        <ele>622.59</ele>
        <time>2013-12-14T14:08:47Z</time>
      </trkpt>
      <trkpt lat="42.98593" lon="-0.12986">
        <ele>624.51</ele>
        <time>2013-12-14T14:08:58Z</time>
      </trkpt>
      <trkpt lat="42.98596" lon="-0.12984">
        <ele>625.47</ele>
        <time>2013-12-14T14:09:01Z</time>
      </trkpt>
      <trkpt lat="42.98606" lon="-0.12974">
        <ele>628.84</ele>
        <time>2013-12-14T14:09:11Z</time>
      </trkpt>
      <trkpt lat="42.98619" lon="-0.12962">
        <ele>632.2</ele>
        <time>2013-12-14T14:09:24Z</time>
      </trkpt>
      <trkpt lat="42.98625" lon="-0.12955">
        <ele>633.17</ele>
        <time>2013-12-14T14:09:30Z</time>
      </trkpt>
      <trkpt lat="42.98638" lon="-0.12937">
        <ele>635.57</ele>
        <time>2013-12-14T14:09:45Z</time>
      </trkpt>
      <trkpt lat="42.98639" lon="-0.12933">
        <ele>636.05</ele>
        <time>2013-12-14T14:09:47Z</time>
      </trkpt>
      <trkpt lat="42.98642" lon="-0.12927">
        <ele>637.01</ele>
        <time>2013-12-14T14:09:51Z</time>
      </trkpt>
      <trkpt lat="42.98645" lon="-0.12925">
        <ele>637.49</ele>
        <time>2013-12-14T14:09:53Z</time>
      </trkpt>
      <trkpt lat="42.98649" lon="-0.12918">
        <ele>639.41</ele>
        <time>2013-12-14T14:09:58Z</time>
      </trkpt>
      <trkpt lat="42.98656" lon="-0.12905">
        <ele>641.82</ele>
        <time>2013-12-14T14:10:07Z</time>
      </trkpt>
      <trkpt lat="42.98657" lon="-0.12903">
        <ele>642.3</ele>
        <time>2013-12-14T14:10:09Z</time>
      </trkpt>
      <trkpt lat="42.98666" lon="-0.12898">
        <ele>643.74</ele>
        <time>2013-12-14T14:10:19Z</time>
      </trkpt>
      <trkpt lat="42.98666" lon="-0.12905">
        <ele>643.26</ele>
        <time>2013-12-14T14:10:29Z</time>
      </trkpt>
      <trkpt lat="42.98667" lon="-0.12906">
        <ele>643.74</ele>
        <time>2013-12-14T14:10:44Z</time>
      </trkpt>
      <trkpt lat="42.98667" lon="-0.12906">
        <ele>643.26</ele>
        <time>2013-12-14T14:10:58Z</time>
      </trkpt>
      <trkpt lat="42.98667" lon="-0.12906">
        <ele>643.26</ele>
        <time>2013-12-14T14:11:19Z</time>
      </trkpt>
      <trkpt lat="42.98668" lon="-0.12904">
        <ele>643.26</ele>
        <time>2013-12-14T14:11:26Z</time>
      </trkpt>
      <trkpt lat="42.98669" lon="-0.12903">
        <ele>643.74</ele>
        <time>2013-12-14T14:11:34Z</time>
      </trkpt>
      <trkpt lat="42.98669" lon="-0.12904">
        <ele>643.26</ele>
        <time>2013-12-14T14:12:06Z</time>
      </trkpt>
      <trkpt lat="42.98668" lon="-0.12903">
        <ele>643.74</ele>
        <time>2013-12-14T14:12:35Z</time>
      </trkpt>
      <trkpt lat="42.98668" lon="-0.12905">
        <ele>643.26</ele>
        <time>2013-12-14T14:12:49Z</time>
      </trkpt>
      <trkpt lat="42.98668" lon="-0.12905">
        <ele>643.74</ele>
        <time>2013-12-14T14:12:50Z</time>
      </trkpt>
      <trkpt lat="42.98668" lon="-0.12908">
        <ele>643.26</ele>
        <time>2013-12-14T14:12:53Z</time>
      </trkpt>
      <trkpt lat="42.98668" lon="-0.12896">
        <ele>643.74</ele>
        <time>2013-12-14T14:13:01Z</time>
      </trkpt>
      <trkpt lat="42.98669" lon="-0.12897">
        <ele>643.74</ele>
        <time>2013-12-14T14:13:03Z</time>
      </trkpt>
      <trkpt lat="42.98667" lon="-0.12908">
        <ele>643.74</ele>
        <time>2013-12-14T14:13:10Z</time>
      </trkpt>
      <trkpt lat="42.98669" lon="-0.12904">
        <ele>644.7</ele>
        <time>2013-12-14T14:13:19Z</time>
      </trkpt>
      <trkpt lat="42.98669" lon="-0.12903">
        <ele>644.7</ele>
        <time>2013-12-14T14:13:31Z</time>
      </trkpt>
      <trkpt lat="42.98668" lon="-0.12904">
        <ele>644.22</ele>
        <time>2013-12-14T14:13:47Z</time>
      </trkpt>
      <trkpt lat="42.98669" lon="-0.12904">
        <ele>644.7</ele>
        <time>2013-12-14T14:14:02Z</time>
      </trkpt>
      <trkpt lat="42.98669" lon="-0.12903">
        <ele>644.22</ele>
        <time>2013-12-14T14:14:09Z</time>
      </trkpt>
      <trkpt lat="42.98672" lon="-0.12891">
        <ele>644.22</ele>
        <time>2013-12-14T14:14:21Z</time>
      </trkpt>
      <trkpt lat="42.98671" lon="-0.12894">
        <ele>644.22</ele>
        <time>2013-12-14T14:14:23Z</time>
      </trkpt>
      <trkpt lat="42.98669" lon="-0.12902">
        <ele>644.7</ele>
        <time>2013-12-14T14:14:34Z</time>
      </trkpt>
      <trkpt lat="42.98669" lon="-0.12901">
        <ele>644.7</ele>
        <time>2013-12-14T14:14:51Z</time>
      </trkpt>
      <trkpt lat="42.98669" lon="-0.12901">
        <ele>636.05</ele>
        <time>2013-12-14T14:14:54Z</time>
      </trkpt>
      <trkpt lat="42.98669" lon="-0.12901">
        <ele>645.66</ele>
        <time>2013-12-14T14:14:55Z</time>
      </trkpt>
      <trkpt lat="42.98669" lon="-0.12901">
        <ele>636.53</ele>
        <time>2013-12-14T14:14:56Z</time>
      </trkpt>
      <trkpt lat="42.98669" lon="-0.12901">
        <ele>646.62</ele>
        <time>2013-12-14T14:14:57Z</time>
      </trkpt>
      <trkpt lat="42.98669" lon="-0.12901">
        <ele>640.38</ele>
        <time>2013-12-14T14:15:01Z</time>
      </trkpt>
      <trkpt lat="42.98669" lon="-0.12901">
        <ele>643.26</ele>
        <time>2013-12-14T14:15:02Z</time>
      </trkpt>
      <trkpt lat="42.98669" lon="-0.12901">
        <ele>647.59</ele>
        <time>2013-12-14T14:15:03Z</time>
      </trkpt>
      <trkpt lat="42.98669" lon="-0.12901">
        <ele>644.7</ele>
        <time>2013-12-14T14:15:04Z</time>
      </trkpt>
      <trkpt lat="42.98669" lon="-0.12901">
        <ele>644.7</ele>
        <time>2013-12-14T14:15:31Z</time>
      </trkpt>
      <trkpt lat="42.98668" lon="-0.12901">
        <ele>644.7</ele>
        <time>2013-12-14T14:15:49Z</time>
      </trkpt>
      <trkpt lat="42.98669" lon="-0.12903">
        <ele>644.7</ele>
        <time>2013-12-14T14:16:06Z</time>
      </trkpt>
      <trkpt lat="42.98669" lon="-0.12903">
        <ele>645.18</ele>
        <time>2013-12-14T14:16:32Z</time>
      </trkpt>
      <trkpt lat="42.98669" lon="-0.12903">
        <ele>644.7</ele>
        <time>2013-12-14T14:16:54Z</time>
      </trkpt>
      <trkpt lat="42.98669" lon="-0.12902">
        <ele>645.18</ele>
        <time>2013-12-14T14:17:07Z</time>
      </trkpt>
      <trkpt lat="42.98669" lon="-0.12901">
        <ele>644.7</ele>
        <time>2013-12-14T14:17:24Z</time>
      </trkpt>
      <trkpt lat="42.98669" lon="-0.12901">
        <ele>645.18</ele>
        <time>2013-12-14T14:18:03Z</time>
      </trkpt>
      <trkpt lat="42.9867" lon="-0.12901">
        <ele>645.18</ele>
        <time>2013-12-14T14:18:39Z</time>
      </trkpt>
      <trkpt lat="42.9867" lon="-0.12901">
        <ele>645.18</ele>
        <time>2013-12-14T14:18:48Z</time>
      </trkpt>
      <trkpt lat="42.9867" lon="-0.12899">
        <ele>645.66</ele>
        <time>2013-12-14T14:18:50Z</time>
      </trkpt>
      <trkpt lat="42.98674" lon="-0.12888">
        <ele>645.18</ele>
        <time>2013-12-14T14:18:56Z</time>
      </trkpt>
      <trkpt lat="42.98706" lon="-0.12863">
        <ele>645.66</ele>
        <time>2013-12-14T14:19:12Z</time>
      </trkpt>
      <trkpt lat="42.98729" lon="-0.1286">
        <ele>646.14</ele>
        <time>2013-12-14T14:19:24Z</time>
      </trkpt>
      <trkpt lat="42.98761" lon="-0.12857">
        <ele>647.1</ele>
        <time>2013-12-14T14:19:38Z</time>
      </trkpt>
      <trkpt lat="42.98794" lon="-0.1285">
        <ele>649.03</ele>
        <time>2013-12-14T14:19:52Z</time>
      </trkpt>
      <trkpt lat="42.98833" lon="-0.12837">
        <ele>650.47</ele>
        <time>2013-12-14T14:20:07Z</time>
      </trkpt>
      <trkpt lat="42.98876" lon="-0.12814">
        <ele>650.95</ele>
        <time>2013-12-14T14:20:23Z</time>
      </trkpt>
      <trkpt lat="42.98904" lon="-0.12781">
        <ele>651.91</ele>
        <time>2013-12-14T14:20:36Z</time>
      </trkpt>
      <trkpt lat="42.98937" lon="-0.12747">
        <ele>653.83</ele>
        <time>2013-12-14T14:20:51Z</time>
      </trkpt>
      <trkpt lat="42.98956" lon="-0.12721">
        <ele>655.28</ele>
        <time>2013-12-14T14:21:01Z</time>
      </trkpt>
      <trkpt lat="42.98981" lon="-0.12688">
        <ele>656.24</ele>
        <time>2013-12-14T14:21:14Z</time>
      </trkpt>
      <trkpt lat="42.99011" lon="-0.12665">
        <ele>658.16</ele>
        <time>2013-12-14T14:21:28Z</time>
      </trkpt>
      <trkpt lat="42.99036" lon="-0.12633">
        <ele>660.56</ele>
        <time>2013-12-14T14:21:44Z</time>
      </trkpt>
      <trkpt lat="42.99048" lon="-0.12597">
        <ele>663.93</ele>
        <time>2013-12-14T14:21:58Z</time>
      </trkpt>
      <trkpt lat="42.99056" lon="-0.1255">
        <ele>667.29</ele>
        <time>2013-12-14T14:22:15Z</time>
      </trkpt>
      <trkpt lat="42.99078" lon="-0.12517">
        <ele>669.22</ele>
        <time>2013-12-14T14:22:31Z</time>
      </trkpt>
      <trkpt lat="42.99093" lon="-0.12505">
        <ele>672.58</ele>
        <time>2013-12-14T14:22:42Z</time>
      </trkpt>
      <trkpt lat="42.9911" lon="-0.12532">
        <ele>675.46</ele>
        <time>2013-12-14T14:22:57Z</time>
      </trkpt>
      <trkpt lat="42.99127" lon="-0.12562">
        <ele>678.83</ele>
        <time>2013-12-14T14:23:12Z</time>
      </trkpt>
      <trkpt lat="42.99131" lon="-0.1257">
        <ele>679.79</ele>
        <time>2013-12-14T14:23:16Z</time>
      </trkpt>
      <trkpt lat="42.99138" lon="-0.12578">
        <ele>680.75</ele>
        <time>2013-12-14T14:23:21Z</time>
      </trkpt>
      <trkpt lat="42.99141" lon="-0.12588">
        <ele>681.71</ele>
        <time>2013-12-14T14:23:26Z</time>
      </trkpt>
      <trkpt lat="42.99154" lon="-0.12611">
        <ele>684.12</ele>
        <time>2013-12-14T14:23:40Z</time>
      </trkpt>
      <trkpt lat="42.99156" lon="-0.12614">
        <ele>685.08</ele>
        <time>2013-12-14T14:23:42Z</time>
      </trkpt>
      <trkpt lat="42.99165" lon="-0.12629">
        <ele>686.52</ele>
        <time>2013-12-14T14:23:52Z</time>
      </trkpt>
      <trkpt lat="42.99164" lon="-0.12638">
        <ele>687</ele>
        <time>2013-12-14T14:23:56Z</time>
      </trkpt>
      <trkpt lat="42.99161" lon="-0.12643">
        <ele>687.48</ele>
        <time>2013-12-14T14:23:59Z</time>
      </trkpt>
      <trkpt lat="42.99154" lon="-0.12656">
        <ele>687.96</ele>
        <time>2013-12-14T14:24:05Z</time>
      </trkpt>
      <trkpt lat="42.99137" lon="-0.12684">
        <ele>688.92</ele>
        <time>2013-12-14T14:24:20Z</time>
      </trkpt>
      <trkpt lat="42.99136" lon="-0.12685">
        <ele>688.92</ele>
        <time>2013-12-14T14:24:21Z</time>
      </trkpt>
      <trkpt lat="42.99126" lon="-0.12695">
        <ele>688.92</ele>
        <time>2013-12-14T14:24:31Z</time>
      </trkpt>
      <trkpt lat="42.99118" lon="-0.12706">
        <ele>688.92</ele>
        <time>2013-12-14T14:24:39Z</time>
      </trkpt>
      <trkpt lat="42.99113" lon="-0.12712">
        <ele>688.92</ele>
        <time>2013-12-14T14:24:43Z</time>
      </trkpt>
      <trkpt lat="42.99112" lon="-0.12717">
        <ele>688.92</ele>
        <time>2013-12-14T14:24:55Z</time>
      </trkpt>
      <trkpt lat="42.9911" lon="-0.1272">
        <ele>689.4</ele>
        <time>2013-12-14T14:24:58Z</time>
      </trkpt>
      <trkpt lat="42.99109" lon="-0.12739">
        <ele>689.88</ele>
        <time>2013-12-14T14:25:06Z</time>
      </trkpt>
      <trkpt lat="42.9911" lon="-0.12753">
        <ele>690.84</ele>
        <time>2013-12-14T14:25:11Z</time>
      </trkpt>
      <trkpt lat="42.99105" lon="-0.12762">
        <ele>691.33</ele>
        <time>2013-12-14T14:25:15Z</time>
      </trkpt>
      <trkpt lat="42.99088" lon="-0.12781">
        <ele>692.29</ele>
        <time>2013-12-14T14:25:25Z</time>
      </trkpt>
      <trkpt lat="42.99087" lon="-0.12785">
        <ele>693.25</ele>
        <time>2013-12-14T14:25:27Z</time>
      </trkpt>
      <trkpt lat="42.99097" lon="-0.1281">
        <ele>695.65</ele>
        <time>2013-12-14T14:25:39Z</time>
      </trkpt>
      <trkpt lat="42.99115" lon="-0.12815">
        <ele>695.65</ele>
        <time>2013-12-14T14:25:47Z</time>
      </trkpt>
      <trkpt lat="42.99125" lon="-0.12856">
        <ele>698.53</ele>
        <time>2013-12-14T14:26:02Z</time>
      </trkpt>
      <trkpt lat="42.99133" lon="-0.12887">
        <ele>701.42</ele>
        <time>2013-12-14T14:26:14Z</time>
      </trkpt>
      <trkpt lat="42.99151" lon="-0.12917">
        <ele>703.82</ele>
        <time>2013-12-14T14:26:29Z</time>
      </trkpt>
      <trkpt lat="42.99166" lon="-0.12942">
        <ele>706.71</ele>
        <time>2013-12-14T14:26:42Z</time>
      </trkpt>
      <trkpt lat="42.99168" lon="-0.12951">
        <ele>707.19</ele>
        <time>2013-12-14T14:26:46Z</time>
      </trkpt>
      <trkpt lat="42.99163" lon="-0.12964">
        <ele>708.15</ele>
        <time>2013-12-14T14:26:51Z</time>
      </trkpt>
      <trkpt lat="42.99137" lon="-0.13003">
        <ele>709.59</ele>
        <time>2013-12-14T14:27:07Z</time>
      </trkpt>
      <trkpt lat="42.99112" lon="-0.13041">
        <ele>711.99</ele>
        <time>2013-12-14T14:27:22Z</time>
      </trkpt>
      <trkpt lat="42.99089" lon="-0.13073">
        <ele>713.44</ele>
        <time>2013-12-14T14:27:35Z</time>
      </trkpt>
      <trkpt lat="42.99058" lon="-0.13106">
        <ele>716.32</ele>
        <time>2013-12-14T14:27:52Z</time>
      </trkpt>
      <trkpt lat="42.99032" lon="-0.1313">
        <ele>719.2</ele>
        <time>2013-12-14T14:28:06Z</time>
      </trkpt>
      <trkpt lat="42.99009" lon="-0.13168">
        <ele>721.61</ele>
        <time>2013-12-14T14:28:21Z</time>
      </trkpt>
      <trkpt lat="42.98997" lon="-0.13227">
        <ele>723.53</ele>
        <time>2013-12-14T14:28:38Z</time>
      </trkpt>
      <trkpt lat="42.98974" lon="-0.13266">
        <ele>724.01</ele>
        <time>2013-12-14T14:28:52Z</time>
      </trkpt>
      <trkpt lat="42.98941" lon="-0.13305">
        <ele>724.49</ele>
        <time>2013-12-14T14:29:07Z</time>
      </trkpt>
      <trkpt lat="42.98914" lon="-0.13349">
        <ele>724.97</ele>
        <time>2013-12-14T14:29:22Z</time>
      </trkpt>
      <trkpt lat="42.98899" lon="-0.13392">
        <ele>725.45</ele>
        <time>2013-12-14T14:29:34Z</time>
      </trkpt>
      <trkpt lat="42.98879" lon="-0.13443">
        <ele>727.37</ele>
        <time>2013-12-14T14:29:48Z</time>
      </trkpt>
      <trkpt lat="42.98855" lon="-0.13484">
        <ele>728.34</ele>
        <time>2013-12-14T14:30:01Z</time>
      </trkpt>
      <trkpt lat="42.98829" lon="-0.13546">
        <ele>729.3</ele>
        <time>2013-12-14T14:30:18Z</time>
      </trkpt>
      <trkpt lat="42.98819" lon="-0.13588">
        <ele>729.3</ele>
        <time>2013-12-14T14:30:29Z</time>
      </trkpt>
      <trkpt lat="42.98813" lon="-0.13641">
        <ele>731.7</ele>
        <time>2013-12-14T14:30:43Z</time>
      </trkpt>
      <trkpt lat="42.98823" lon="-0.13672">
        <ele>735.55</ele>
        <time>2013-12-14T14:30:56Z</time>
      </trkpt>
      <trkpt lat="42.98846" lon="-0.13667">
        <ele>737.95</ele>
        <time>2013-12-14T14:31:10Z</time>
      </trkpt>
      <trkpt lat="42.9887" lon="-0.13657">
        <ele>740.83</ele>
        <time>2013-12-14T14:31:25Z</time>
      </trkpt>
      <trkpt lat="42.98893" lon="-0.13635">
        <ele>743.24</ele>
        <time>2013-12-14T14:31:40Z</time>
      </trkpt>
      <trkpt lat="42.98904" lon="-0.13629">
        <ele>746.12</ele>
        <time>2013-12-14T14:31:49Z</time>
      </trkpt>
      <trkpt lat="42.98918" lon="-0.13641">
        <ele>749</ele>
        <time>2013-12-14T14:32:01Z</time>
      </trkpt>
      <trkpt lat="42.98919" lon="-0.13646">
        <ele>750.45</ele>
        <time>2013-12-14T14:32:04Z</time>
      </trkpt>
      <trkpt lat="42.98923" lon="-0.13661">
        <ele>752.85</ele>
        <time>2013-12-14T14:32:13Z</time>
      </trkpt>
      <trkpt lat="42.98924" lon="-0.13664">
        <ele>753.33</ele>
        <time>2013-12-14T14:32:15Z</time>
      </trkpt>
      <trkpt lat="42.98922" lon="-0.13674">
        <ele>755.73</ele>
        <time>2013-12-14T14:32:25Z</time>
      </trkpt>
      <trkpt lat="42.98923" lon="-0.13683">
        <ele>758.14</ele>
        <time>2013-12-14T14:32:35Z</time>
      </trkpt>
      <trkpt lat="42.98923" lon="-0.13694">
        <ele>761.02</ele>
        <time>2013-12-14T14:32:46Z</time>
      </trkpt>
      <trkpt lat="42.98925" lon="-0.13703">
        <ele>762.94</ele>
        <time>2013-12-14T14:32:58Z</time>
      </trkpt>
      <trkpt lat="42.98926" lon="-0.13714">
        <ele>765.83</ele>
        <time>2013-12-14T14:33:09Z</time>
      </trkpt>
      <trkpt lat="42.98928" lon="-0.13721">
        <ele>768.71</ele>
        <time>2013-12-14T14:33:23Z</time>
      </trkpt>
      <trkpt lat="42.98932" lon="-0.13719">
        <ele>770.63</ele>
        <time>2013-12-14T14:33:30Z</time>
      </trkpt>
      <trkpt lat="42.98933" lon="-0.13719">
        <ele>771.11</ele>
        <time>2013-12-14T14:33:31Z</time>
      </trkpt>
      <trkpt lat="42.98941" lon="-0.13719">
        <ele>773.04</ele>
        <time>2013-12-14T14:33:42Z</time>
      </trkpt>
      <trkpt lat="42.98951" lon="-0.1372">
        <ele>774.96</ele>
        <time>2013-12-14T14:33:54Z</time>
      </trkpt>
      <trkpt lat="42.98956" lon="-0.13718">
        <ele>775.44</ele>
        <time>2013-12-14T14:34:07Z</time>
      </trkpt>
      <trkpt lat="42.98957" lon="-0.13718">
        <ele>774.96</ele>
        <time>2013-12-14T14:34:33Z</time>
      </trkpt>
      <trkpt lat="42.98957" lon="-0.13719">
        <ele>775.44</ele>
        <time>2013-12-14T14:35:02Z</time>
      </trkpt>
      <trkpt lat="42.98959" lon="-0.13719">
        <ele>775.44</ele>
        <time>2013-12-14T14:35:35Z</time>
      </trkpt>
      <trkpt lat="42.9896" lon="-0.1372">
        <ele>775.92</ele>
        <time>2013-12-14T14:35:40Z</time>
      </trkpt>
      <trkpt lat="42.98971" lon="-0.13726">
        <ele>777.36</ele>
        <time>2013-12-14T14:35:51Z</time>
      </trkpt>
      <trkpt lat="42.98978" lon="-0.1374">
        <ele>780.25</ele>
        <time>2013-12-14T14:36:02Z</time>
      </trkpt>
      <trkpt lat="42.98987" lon="-0.13754">
        <ele>783.13</ele>
        <time>2013-12-14T14:36:15Z</time>
      </trkpt>
      <trkpt lat="42.98989" lon="-0.13758">
        <ele>783.61</ele>
        <time>2013-12-14T14:36:18Z</time>
      </trkpt>
      <trkpt lat="42.98991" lon="-0.1376">
        <ele>784.09</ele>
        <time>2013-12-14T14:36:20Z</time>
      </trkpt>
      <trkpt lat="42.99003" lon="-0.13772">
        <ele>786.5</ele>
        <time>2013-12-14T14:36:33Z</time>
      </trkpt>
      <trkpt lat="42.99016" lon="-0.13781">
        <ele>788.42</ele>
        <time>2013-12-14T14:36:46Z</time>
      </trkpt>
      <trkpt lat="42.9902" lon="-0.13784">
        <ele>789.38</ele>
        <time>2013-12-14T14:36:50Z</time>
      </trkpt>
      <trkpt lat="42.99026" lon="-0.13784">
        <ele>789.38</ele>
        <time>2013-12-14T14:36:54Z</time>
      </trkpt>
      <trkpt lat="42.99032" lon="-0.13784">
        <ele>790.34</ele>
        <time>2013-12-14T14:36:59Z</time>
      </trkpt>
      <trkpt lat="42.9905" lon="-0.13782">
        <ele>792.74</ele>
        <time>2013-12-14T14:37:12Z</time>
      </trkpt>
      <trkpt lat="42.99053" lon="-0.13784">
        <ele>793.71</ele>
        <time>2013-12-14T14:37:15Z</time>
      </trkpt>
      <trkpt lat="42.99059" lon="-0.13789">
        <ele>794.19</ele>
        <time>2013-12-14T14:37:20Z</time>
      </trkpt>
      <trkpt lat="42.99062" lon="-0.1379">
        <ele>795.15</ele>
        <time>2013-12-14T14:37:22Z</time>
      </trkpt>
      <trkpt lat="42.99082" lon="-0.13792">
        <ele>797.55</ele>
        <time>2013-12-14T14:37:36Z</time>
      </trkpt>
      <trkpt lat="42.99087" lon="-0.13791">
        <ele>798.51</ele>
        <time>2013-12-14T14:37:40Z</time>
      </trkpt>
      <trkpt lat="42.99098" lon="-0.13792">
        <ele>799.47</ele>
        <time>2013-12-14T14:37:48Z</time>
      </trkpt>
      <trkpt lat="42.99112" lon="-0.13801">
        <ele>800.92</ele>
        <time>2013-12-14T14:37:58Z</time>
      </trkpt>
      <trkpt lat="42.99117" lon="-0.13803">
        <ele>802.36</ele>
        <time>2013-12-14T14:38:02Z</time>
      </trkpt>
      <trkpt lat="42.99123" lon="-0.13809">
        <ele>802.84</ele>
        <time>2013-12-14T14:38:07Z</time>
      </trkpt>
      <trkpt lat="42.9913" lon="-0.13816">
        <ele>804.28</ele>
        <time>2013-12-14T14:38:13Z</time>
      </trkpt>
      <trkpt lat="42.99141" lon="-0.13832">
        <ele>806.2</ele>
        <time>2013-12-14T14:38:25Z</time>
      </trkpt>
      <trkpt lat="42.99159" lon="-0.13852">
        <ele>808.61</ele>
        <time>2013-12-14T14:38:40Z</time>
      </trkpt>
      <trkpt lat="42.9917" lon="-0.13873">
        <ele>810.05</ele>
        <time>2013-12-14T14:38:52Z</time>
      </trkpt>
      <trkpt lat="42.99176" lon="-0.13889">
        <ele>811.49</ele>
        <time>2013-12-14T14:39:00Z</time>
      </trkpt>
      <trkpt lat="42.99179" lon="-0.13897">
        <ele>812.45</ele>
        <time>2013-12-14T14:39:04Z</time>
      </trkpt>
      <trkpt lat="42.99191" lon="-0.13913">
        <ele>814.85</ele>
        <time>2013-12-14T14:39:17Z</time>
      </trkpt>
      <trkpt lat="42.99192" lon="-0.13916">
        <ele>814.85</ele>
        <time>2013-12-14T14:39:19Z</time>
      </trkpt>
      <trkpt lat="42.99202" lon="-0.13932">
        <ele>818.22</ele>
        <time>2013-12-14T14:39:31Z</time>
      </trkpt>
      <trkpt lat="42.99203" lon="-0.13934">
        <ele>818.22</ele>
        <time>2013-12-14T14:39:32Z</time>
      </trkpt>
      <trkpt lat="42.99217" lon="-0.13954">
        <ele>821.1</ele>
        <time>2013-12-14T14:39:44Z</time>
      </trkpt>
      <trkpt lat="42.99219" lon="-0.13955">
        <ele>820.62</ele>
        <time>2013-12-14T14:39:45Z</time>
      </trkpt>
      <trkpt lat="42.99226" lon="-0.13969">
        <ele>822.55</ele>
        <time>2013-12-14T14:39:53Z</time>
      </trkpt>
      <trkpt lat="42.99238" lon="-0.13987">
        <ele>824.95</ele>
        <time>2013-12-14T14:40:06Z</time>
      </trkpt>
      <trkpt lat="42.99244" lon="-0.13996">
        <ele>826.39</ele>
        <time>2013-12-14T14:40:11Z</time>
      </trkpt>
      <trkpt lat="42.99257" lon="-0.14021">
        <ele>828.79</ele>
        <time>2013-12-14T14:40:25Z</time>
      </trkpt>
      <trkpt lat="42.99263" lon="-0.14035">
        <ele>830.72</ele>
        <time>2013-12-14T14:40:35Z</time>
      </trkpt>
      <trkpt lat="42.9927" lon="-0.14034">
        <ele>831.2</ele>
        <time>2013-12-14T14:40:40Z</time>
      </trkpt>
      <trkpt lat="42.99291" lon="-0.14019">
        <ele>832.16</ele>
        <time>2013-12-14T14:40:58Z</time>
      </trkpt>
      <trkpt lat="42.99291" lon="-0.1402">
        <ele>832.16</ele>
        <time>2013-12-14T14:41:15Z</time>
      </trkpt>
      <trkpt lat="42.99291" lon="-0.1402">
        <ele>831.68</ele>
        <time>2013-12-14T14:41:34Z</time>
      </trkpt>
      <trkpt lat="42.99292" lon="-0.1402">
        <ele>831.68</ele>
        <time>2013-12-14T14:41:46Z</time>
      </trkpt>
      <trkpt lat="42.99294" lon="-0.14018">
        <ele>831.68</ele>
        <time>2013-12-14T14:42:20Z</time>
      </trkpt>
      <trkpt lat="42.99293" lon="-0.14019">
        <ele>832.16</ele>
        <time>2013-12-14T14:42:59Z</time>
      </trkpt>
      <trkpt lat="42.99294" lon="-0.14018">
        <ele>832.16</ele>
        <time>2013-12-14T14:43:40Z</time>
      </trkpt>
      <trkpt lat="42.99294" lon="-0.14017">
        <ele>833.12</ele>
        <time>2013-12-14T14:43:48Z</time>
      </trkpt>
      <trkpt lat="42.99298" lon="-0.1401">
        <ele>833.12</ele>
        <time>2013-12-14T14:44:00Z</time>
      </trkpt>
      <trkpt lat="42.99303" lon="-0.14002">
        <ele>834.08</ele>
        <time>2013-12-14T14:44:05Z</time>
      </trkpt>
      <trkpt lat="42.99309" lon="-0.13992">
        <ele>835.04</ele>
        <time>2013-12-14T14:44:11Z</time>
      </trkpt>
      <trkpt lat="42.99326" lon="-0.13978">
        <ele>836.96</ele>
        <time>2013-12-14T14:44:23Z</time>
      </trkpt>
      <trkpt lat="42.99331" lon="-0.13976">
        <ele>837.45</ele>
        <time>2013-12-14T14:44:26Z</time>
      </trkpt>
      <trkpt lat="42.99352" lon="-0.13962">
        <ele>839.37</ele>
        <time>2013-12-14T14:44:40Z</time>
      </trkpt>
      <trkpt lat="42.99368" lon="-0.1394">
        <ele>841.77</ele>
        <time>2013-12-14T14:44:54Z</time>
      </trkpt>
      <trkpt lat="42.9937" lon="-0.13923">
        <ele>842.73</ele>
        <time>2013-12-14T14:45:01Z</time>
      </trkpt>
      <trkpt lat="42.99374" lon="-0.13909">
        <ele>843.69</ele>
        <time>2013-12-14T14:45:08Z</time>
      </trkpt>
      <trkpt lat="42.99376" lon="-0.13895">
        <ele>845.14</ele>
        <time>2013-12-14T14:45:14Z</time>
      </trkpt>
      <trkpt lat="42.99378" lon="-0.13884">
        <ele>845.62</ele>
        <time>2013-12-14T14:45:19Z</time>
      </trkpt>
      <trkpt lat="42.99386" lon="-0.13857">
        <ele>848.98</ele>
        <time>2013-12-14T14:45:33Z</time>
      </trkpt>
      <trkpt lat="42.99394" lon="-0.13842">
        <ele>849.94</ele>
        <time>2013-12-14T14:45:41Z</time>
      </trkpt>
      <trkpt lat="42.99417" lon="-0.13831">
        <ele>852.35</ele>
        <time>2013-12-14T14:45:55Z</time>
      </trkpt>
      <trkpt lat="42.99427" lon="-0.13809">
        <ele>854.27</ele>
        <time>2013-12-14T14:46:06Z</time>
      </trkpt>
      <trkpt lat="42.99419" lon="-0.13772">
        <ele>856.67</ele>
        <time>2013-12-14T14:46:23Z</time>
      </trkpt>
      <trkpt lat="42.99414" lon="-0.13749">
        <ele>858.59</ele>
        <time>2013-12-14T14:46:35Z</time>
      </trkpt>
      <trkpt lat="42.99413" lon="-0.13746">
        <ele>859.56</ele>
        <time>2013-12-14T14:46:37Z</time>
      </trkpt>
      <trkpt lat="42.99413" lon="-0.13737">
        <ele>860.52</ele>
        <time>2013-12-14T14:46:42Z</time>
      </trkpt>
      <trkpt lat="42.99411" lon="-0.13705">
        <ele>862.92</ele>
        <time>2013-12-14T14:46:57Z</time>
      </trkpt>
      <trkpt lat="42.99411" lon="-0.13699">
        <ele>863.4</ele>
        <time>2013-12-14T14:47:00Z</time>
      </trkpt>
      <trkpt lat="42.99412" lon="-0.13671">
        <ele>865.8</ele>
        <time>2013-12-14T14:47:14Z</time>
      </trkpt>
      <trkpt lat="42.99414" lon="-0.13636">
        <ele>868.21</ele>
        <time>2013-12-14T14:47:31Z</time>
      </trkpt>
      <trkpt lat="42.99421" lon="-0.13612">
        <ele>871.09</ele>
        <time>2013-12-14T14:47:44Z</time>
      </trkpt>
      <trkpt lat="42.99433" lon="-0.1358">
        <ele>874.46</ele>
        <time>2013-12-14T14:48:00Z</time>
      </trkpt>
      <trkpt lat="42.99452" lon="-0.13555">
        <ele>876.38</ele>
        <time>2013-12-14T14:48:17Z</time>
      </trkpt>
      <trkpt lat="42.99475" lon="-0.13538">
        <ele>878.78</ele>
        <time>2013-12-14T14:48:33Z</time>
      </trkpt>
      <trkpt lat="42.99477" lon="-0.13536">
        <ele>879.26</ele>
        <time>2013-12-14T14:48:35Z</time>
      </trkpt>
      <trkpt lat="42.99496" lon="-0.13508">
        <ele>882.63</ele>
        <time>2013-12-14T14:48:52Z</time>
      </trkpt>
      <trkpt lat="42.99512" lon="-0.13483">
        <ele>885.03</ele>
        <time>2013-12-14T14:49:07Z</time>
      </trkpt>
      <trkpt lat="42.99528" lon="-0.1346">
        <ele>887.43</ele>
        <time>2013-12-14T14:49:22Z</time>
      </trkpt>
      <trkpt lat="42.99542" lon="-0.1344">
        <ele>889.84</ele>
        <time>2013-12-14T14:49:35Z</time>
      </trkpt>
      <trkpt lat="42.99545" lon="-0.13432">
        <ele>890.32</ele>
        <time>2013-12-14T14:49:39Z</time>
      </trkpt>
      <trkpt lat="42.99547" lon="-0.13423">
        <ele>891.28</ele>
        <time>2013-12-14T14:49:43Z</time>
      </trkpt>
      <trkpt lat="42.99558" lon="-0.13384">
        <ele>893.68</ele>
        <time>2013-12-14T14:50:02Z</time>
      </trkpt>
      <trkpt lat="42.99559" lon="-0.1338">
        <ele>894.16</ele>
        <time>2013-12-14T14:50:04Z</time>
      </trkpt>
      <trkpt lat="42.9957" lon="-0.13365">
        <ele>895.61</ele>
        <time>2013-12-14T14:50:16Z</time>
      </trkpt>
      <trkpt lat="42.99573" lon="-0.13364">
        <ele>895.12</ele>
        <time>2013-12-14T14:50:18Z</time>
      </trkpt>
      <trkpt lat="42.99595" lon="-0.13368">
        <ele>897.05</ele>
        <time>2013-12-14T14:50:32Z</time>
      </trkpt>
      <trkpt lat="42.99611" lon="-0.13373">
        <ele>898.49</ele>
        <time>2013-12-14T14:50:44Z</time>
      </trkpt>
      <trkpt lat="42.99636" lon="-0.13378">
        <ele>900.41</ele>
        <time>2013-12-14T14:50:58Z</time>
      </trkpt>
      <trkpt lat="42.9966" lon="-0.13379">
        <ele>902.33</ele>
        <time>2013-12-14T14:51:12Z</time>
      </trkpt>
      <trkpt lat="42.99684" lon="-0.13384">
        <ele>904.74</ele>
        <time>2013-12-14T14:51:27Z</time>
      </trkpt>
      <trkpt lat="42.99703" lon="-0.13388">
        <ele>906.18</ele>
        <time>2013-12-14T14:51:38Z</time>
      </trkpt>
      <trkpt lat="42.99729" lon="-0.13394">
        <ele>908.1</ele>
        <time>2013-12-14T14:51:52Z</time>
      </trkpt>
      <trkpt lat="42.99744" lon="-0.13397">
        <ele>909.06</ele>
        <time>2013-12-14T14:52:01Z</time>
      </trkpt>
      <trkpt lat="42.99751" lon="-0.13399">
        <ele>909.06</ele>
        <time>2013-12-14T14:52:05Z</time>
      </trkpt>
      <trkpt lat="42.99774" lon="-0.13395">
        <ele>910.51</ele>
        <time>2013-12-14T14:52:18Z</time>
      </trkpt>
      <trkpt lat="42.99795" lon="-0.13396">
        <ele>911.95</ele>
        <time>2013-12-14T14:52:30Z</time>
      </trkpt>
      <trkpt lat="42.99818" lon="-0.13392">
        <ele>912.91</ele>
        <time>2013-12-14T14:52:42Z</time>
      </trkpt>
      <trkpt lat="42.99843" lon="-0.13383">
        <ele>914.83</ele>
        <time>2013-12-14T14:52:54Z</time>
      </trkpt>
      <trkpt lat="42.99866" lon="-0.1336">
        <ele>916.27</ele>
        <time>2013-12-14T14:53:07Z</time>
      </trkpt>
      <trkpt lat="42.9989" lon="-0.13337">
        <ele>918.68</ele>
        <time>2013-12-14T14:53:21Z</time>
      </trkpt>
      <trkpt lat="42.99919" lon="-0.13311">
        <ele>920.6</ele>
        <time>2013-12-14T14:53:36Z</time>
      </trkpt>
      <trkpt lat="42.99951" lon="-0.13294">
        <ele>922.52</ele>
        <time>2013-12-14T14:53:51Z</time>
      </trkpt>
      <trkpt lat="42.99972" lon="-0.13268">
        <ele>924.93</ele>
        <time>2013-12-14T14:54:03Z</time>
      </trkpt>
      <trkpt lat="42.99992" lon="-0.13225">
        <ele>927.81</ele>
        <time>2013-12-14T14:54:19Z</time>
      </trkpt>
      <trkpt lat="43.00018" lon="-0.13226">
        <ele>929.25</ele>
        <time>2013-12-14T14:54:31Z</time>
      </trkpt>
      <trkpt lat="43.00049" lon="-0.1323">
        <ele>929.73</ele>
        <time>2013-12-14T14:54:43Z</time>
      </trkpt>
      <trkpt lat="43.00082" lon="-0.1323">
        <ele>930.21</ele>
        <time>2013-12-14T14:54:55Z</time>
      </trkpt>
      <trkpt lat="43.00122" lon="-0.13227">
        <ele>930.69</ele>
        <time>2013-12-14T14:55:09Z</time>
      </trkpt>
      <trkpt lat="43.00168" lon="-0.13224">
        <ele>931.65</ele>
        <time>2013-12-14T14:55:25Z</time>
      </trkpt>
      <trkpt lat="43.00203" lon="-0.13222">
        <ele>933.1</ele>
        <time>2013-12-14T14:55:38Z</time>
      </trkpt>
      <trkpt lat="43.00242" lon="-0.13218">
        <ele>933.1</ele>
        <time>2013-12-14T14:55:52Z</time>
      </trkpt>
      <trkpt lat="43.00255" lon="-0.13215">
        <ele>933.58</ele>
        <time>2013-12-14T14:55:57Z</time>
      </trkpt>
      <trkpt lat="43.00261" lon="-0.13195">
        <ele>931.65</ele>
        <time>2013-12-14T14:56:03Z</time>
      </trkpt>
      <trkpt lat="43.00256" lon="-0.13163">
        <ele>928.29</ele>
        <time>2013-12-14T14:56:08Z</time>
      </trkpt>
      <trkpt lat="43.00252" lon="-0.13142">
        <ele>926.85</ele>
        <time>2013-12-14T14:56:11Z</time>
      </trkpt>
      <trkpt lat="43.00244" lon="-0.13098">
        <ele>925.89</ele>
        <time>2013-12-14T14:56:18Z</time>
      </trkpt>
      <trkpt lat="43.00243" lon="-0.13088">
        <ele>925.41</ele>
        <time>2013-12-14T14:56:25Z</time>
      </trkpt>
      <trkpt lat="43.00242" lon="-0.13089">
        <ele>924.93</ele>
        <time>2013-12-14T14:56:56Z</time>
      </trkpt>
      <trkpt lat="43.00239" lon="-0.13086">
        <ele>924.45</ele>
        <time>2013-12-14T14:57:29Z</time>
      </trkpt>
      <trkpt lat="43.00238" lon="-0.13086">
        <ele>924.45</ele>
        <time>2013-12-14T14:58:01Z</time>
      </trkpt>
      <trkpt lat="43.00237" lon="-0.13088">
        <ele>924.45</ele>
        <time>2013-12-14T14:58:39Z</time>
      </trkpt>
      <trkpt lat="43.00238" lon="-0.13087">
        <ele>924.45</ele>
        <time>2013-12-14T14:59:17Z</time>
      </trkpt>
      <trkpt lat="43.0023" lon="-0.13079">
        <ele>927.81</ele>
        <time>2013-12-14T15:01:02Z</time>
      </trkpt>
      <trkpt lat="43.00241" lon="-0.13079">
        <ele>927.81</ele>
        <time>2013-12-14T15:01:03Z</time>
      </trkpt>
      <trkpt lat="43.00239" lon="-0.13086">
        <ele>924.45</ele>
        <time>2013-12-14T15:01:15Z</time>
      </trkpt>
      <trkpt lat="43.00237" lon="-0.13086">
        <ele>927.81</ele>
        <time>2013-12-14T15:01:16Z</time>
      </trkpt>
      <trkpt lat="43.00236" lon="-0.13086">
        <ele>930.21</ele>
        <time>2013-12-14T15:01:26Z</time>
      </trkpt>
      <trkpt lat="43.00234" lon="-0.13086">
        <ele>934.06</ele>
        <time>2013-12-14T15:01:39Z</time>
      </trkpt>
      <trkpt lat="43.00236" lon="-0.13084">
        <ele>933.58</ele>
        <time>2013-12-14T15:02:10Z</time>
      </trkpt>
      <trkpt lat="43.00233" lon="-0.13086">
        <ele>933.58</ele>
        <time>2013-12-14T15:02:43Z</time>
      </trkpt>
      <trkpt lat="43.00232" lon="-0.13085">
        <ele>933.1</ele>
        <time>2013-12-14T15:03:18Z</time>
      </trkpt>
      <trkpt lat="43.00233" lon="-0.13084">
        <ele>933.1</ele>
        <time>2013-12-14T15:03:51Z</time>
      </trkpt>
      <trkpt lat="43.00234" lon="-0.13084">
        <ele>933.58</ele>
        <time>2013-12-14T15:04:20Z</time>
      </trkpt>
      <trkpt lat="43.00235" lon="-0.13084">
        <ele>933.58</ele>
        <time>2013-12-14T15:04:51Z</time>
      </trkpt>
      <trkpt lat="43.00236" lon="-0.13087">
        <ele>933.1</ele>
        <time>2013-12-14T15:05:19Z</time>
      </trkpt>
      <trkpt lat="43.00234" lon="-0.13083">
        <ele>933.58</ele>
        <time>2013-12-14T15:05:32Z</time>
      </trkpt>
      <trkpt lat="43.00228" lon="-0.13062">
        <ele>934.06</ele>
        <time>2013-12-14T15:05:42Z</time>
      </trkpt>
      <trkpt lat="43.0023" lon="-0.13058">
        <ele>934.06</ele>
        <time>2013-12-14T15:05:46Z</time>
      </trkpt>
      <trkpt lat="43.00234" lon="-0.13053">
        <ele>935.02</ele>
        <time>2013-12-14T15:05:50Z</time>
      </trkpt>
      <trkpt lat="43.00247" lon="-0.13044">
        <ele>937.42</ele>
        <time>2013-12-14T15:06:02Z</time>
      </trkpt>
      <trkpt lat="43.00256" lon="-0.13039">
        <ele>938.38</ele>
        <time>2013-12-14T15:06:14Z</time>
      </trkpt>
      <trkpt lat="43.00266" lon="-0.13028">
        <ele>940.31</ele>
        <time>2013-12-14T15:06:27Z</time>
      </trkpt>
      <trkpt lat="43.00266" lon="-0.13027">
        <ele>940.31</ele>
        <time>2013-12-14T15:06:28Z</time>
      </trkpt>
      <trkpt lat="43.00275" lon="-0.13013">
        <ele>943.67</ele>
        <time>2013-12-14T15:06:40Z</time>
      </trkpt>
      <trkpt lat="43.0028" lon="-0.13005">
        <ele>944.63</ele>
        <time>2013-12-14T15:06:48Z</time>
      </trkpt>
      <trkpt lat="43.00286" lon="-0.12997">
        <ele>946.56</ele>
        <time>2013-12-14T15:06:54Z</time>
      </trkpt>
      <trkpt lat="43.00291" lon="-0.12991">
        <ele>948</ele>
        <time>2013-12-14T15:07:05Z</time>
      </trkpt>
      <trkpt lat="43.00296" lon="-0.12985">
        <ele>948.96</ele>
        <time>2013-12-14T15:07:19Z</time>
      </trkpt>
      <trkpt lat="43.003" lon="-0.12982">
        <ele>950.4</ele>
        <time>2013-12-14T15:07:29Z</time>
      </trkpt>
      <trkpt lat="43.00303" lon="-0.12977">
        <ele>951.36</ele>
        <time>2013-12-14T15:07:39Z</time>
      </trkpt>
      <trkpt lat="43.00308" lon="-0.12968">
        <ele>952.8</ele>
        <time>2013-12-14T15:07:53Z</time>
      </trkpt>
      <trkpt lat="43.00311" lon="-0.12954">
        <ele>955.21</ele>
        <time>2013-12-14T15:08:07Z</time>
      </trkpt>
      <trkpt lat="43.00312" lon="-0.12947">
        <ele>956.17</ele>
        <time>2013-12-14T15:08:19Z</time>
      </trkpt>
      <trkpt lat="43.00314" lon="-0.12938">
        <ele>956.65</ele>
        <time>2013-12-14T15:08:30Z</time>
      </trkpt>
      <trkpt lat="43.00313" lon="-0.12938">
        <ele>956.17</ele>
        <time>2013-12-14T15:08:44Z</time>
      </trkpt>
      <trkpt lat="43.00313" lon="-0.12936">
        <ele>956.17</ele>
        <time>2013-12-14T15:09:10Z</time>
      </trkpt>
      <trkpt lat="43.00313" lon="-0.12936">
        <ele>956.65</ele>
        <time>2013-12-14T15:09:13Z</time>
      </trkpt>
      <trkpt lat="43.0032" lon="-0.1292">
        <ele>959.05</ele>
        <time>2013-12-14T15:09:22Z</time>
      </trkpt>
      <trkpt lat="43.00328" lon="-0.12906">
        <ele>958.09</ele>
        <time>2013-12-14T15:09:31Z</time>
      </trkpt>
      <trkpt lat="43.00329" lon="-0.12902">
        <ele>958.09</ele>
        <time>2013-12-14T15:09:44Z</time>
      </trkpt>
      <trkpt lat="43.00328" lon="-0.12897">
        <ele>957.13</ele>
        <time>2013-12-14T15:09:46Z</time>
      </trkpt>
      <trkpt lat="43.0032" lon="-0.12877">
        <ele>952.8</ele>
        <time>2013-12-14T15:09:52Z</time>
      </trkpt>
      <trkpt lat="43.00321" lon="-0.12874">
        <ele>952.32</ele>
        <time>2013-12-14T15:09:53Z</time>
      </trkpt>
      <trkpt lat="43.00327" lon="-0.12859">
        <ele>949.44</ele>
        <time>2013-12-14T15:09:57Z</time>
      </trkpt>
      <trkpt lat="43.00326" lon="-0.1283">
        <ele>946.07</ele>
        <time>2013-12-14T15:10:03Z</time>
      </trkpt>
      <trkpt lat="43.00323" lon="-0.12814">
        <ele>943.67</ele>
        <time>2013-12-14T15:10:08Z</time>
      </trkpt>
      <trkpt lat="43.00323" lon="-0.12809">
        <ele>943.19</ele>
        <time>2013-12-14T15:10:10Z</time>
      </trkpt>
      <trkpt lat="43.00323" lon="-0.12806">
        <ele>942.71</ele>
        <time>2013-12-14T15:10:11Z</time>
      </trkpt>
      <trkpt lat="43.00326" lon="-0.12788">
        <ele>941.75</ele>
        <time>2013-12-14T15:10:17Z</time>
      </trkpt>
      <trkpt lat="43.00329" lon="-0.12782">
        <ele>941.75</ele>
        <time>2013-12-14T15:10:19Z</time>
      </trkpt>
      <trkpt lat="43.00333" lon="-0.12771">
        <ele>941.27</ele>
        <time>2013-12-14T15:10:24Z</time>
      </trkpt>
      <trkpt lat="43.00337" lon="-0.12755">
        <ele>937.9</ele>
        <time>2013-12-14T15:10:30Z</time>
      </trkpt>
      <trkpt lat="43.00341" lon="-0.12722">
        <ele>935.5</ele>
        <time>2013-12-14T15:10:36Z</time>
      </trkpt>
      <trkpt lat="43.00338" lon="-0.12703">
        <ele>934.06</ele>
        <time>2013-12-14T15:10:39Z</time>
      </trkpt>
      <trkpt lat="43.00331" lon="-0.12685">
        <ele>932.62</ele>
        <time>2013-12-14T15:10:47Z</time>
      </trkpt>
      <trkpt lat="43.00329" lon="-0.12674">
        <ele>930.21</ele>
        <time>2013-12-14T15:10:51Z</time>
      </trkpt>
      <trkpt lat="43.00329" lon="-0.12664">
        <ele>928.29</ele>
        <time>2013-12-14T15:10:54Z</time>
      </trkpt>
      <trkpt lat="43.00332" lon="-0.12644">
        <ele>927.81</ele>
        <time>2013-12-14T15:11:03Z</time>
      </trkpt>
      <trkpt lat="43.00332" lon="-0.12638">
        <ele>926.37</ele>
        <time>2013-12-14T15:11:05Z</time>
      </trkpt>
      <trkpt lat="43.00333" lon="-0.12633">
        <ele>925.89</ele>
        <time>2013-12-14T15:11:07Z</time>
      </trkpt>
      <trkpt lat="43.00332" lon="-0.12629">
        <ele>923.48</ele>
        <time>2013-12-14T15:11:10Z</time>
      </trkpt>
      <trkpt lat="43.0033" lon="-0.12612">
        <ele>921.08</ele>
        <time>2013-12-14T15:11:13Z</time>
      </trkpt>
      <trkpt lat="43.00325" lon="-0.12594">
        <ele>919.16</ele>
        <time>2013-12-14T15:11:19Z</time>
      </trkpt>
      <trkpt lat="43.00313" lon="-0.12584">
        <ele>917.24</ele>
        <time>2013-12-14T15:11:32Z</time>
      </trkpt>
      <trkpt lat="43.0031" lon="-0.12583">
        <ele>916.75</ele>
        <time>2013-12-14T15:11:33Z</time>
      </trkpt>
      <trkpt lat="43.00298" lon="-0.12573">
        <ele>911.95</ele>
        <time>2013-12-14T15:11:37Z</time>
      </trkpt>
      <trkpt lat="43.00287" lon="-0.12565">
        <ele>905.7</ele>
        <time>2013-12-14T15:11:42Z</time>
      </trkpt>
      <trkpt lat="43.00285" lon="-0.12562">
        <ele>903.78</ele>
        <time>2013-12-14T15:11:45Z</time>
      </trkpt>
      <trkpt lat="43.00283" lon="-0.12562">
        <ele>902.33</ele>
        <time>2013-12-14T15:11:46Z</time>
      </trkpt>
      <trkpt lat="43.00279" lon="-0.12549">
        <ele>899.45</ele>
        <time>2013-12-14T15:11:50Z</time>
      </trkpt>
      <trkpt lat="43.00279" lon="-0.12545">
        <ele>898.49</ele>
        <time>2013-12-14T15:11:51Z</time>
      </trkpt>
      <trkpt lat="43.0028" lon="-0.12526">
        <ele>893.68</ele>
        <time>2013-12-14T15:11:55Z</time>
      </trkpt>
      <trkpt lat="43.00282" lon="-0.1252">
        <ele>892.72</ele>
        <time>2013-12-14T15:11:58Z</time>
      </trkpt>
      <trkpt lat="43.00286" lon="-0.12511">
        <ele>890.32</ele>
        <time>2013-12-14T15:12:01Z</time>
      </trkpt>
      <trkpt lat="43.00289" lon="-0.12497">
        <ele>886.47</ele>
        <time>2013-12-14T15:12:04Z</time>
      </trkpt>
      <trkpt lat="43.00289" lon="-0.12489">
        <ele>885.51</ele>
        <time>2013-12-14T15:12:05Z</time>
      </trkpt>
      <trkpt lat="43.00288" lon="-0.12455">
        <ele>880.71</ele>
        <time>2013-12-14T15:12:09Z</time>
      </trkpt>
      <trkpt lat="43.00288" lon="-0.12447">
        <ele>879.74</ele>
        <time>2013-12-14T15:12:10Z</time>
      </trkpt>
      <trkpt lat="43.00284" lon="-0.12426">
        <ele>877.82</ele>
        <time>2013-12-14T15:12:13Z</time>
      </trkpt>
      <trkpt lat="43.00284" lon="-0.12422">
        <ele>876.86</ele>
        <time>2013-12-14T15:12:14Z</time>
      </trkpt>
      <trkpt lat="43.00285" lon="-0.12401">
        <ele>875.42</ele>
        <time>2013-12-14T15:12:27Z</time>
      </trkpt>
      <trkpt lat="43.00284" lon="-0.12387">
        <ele>873.5</ele>
        <time>2013-12-14T15:12:31Z</time>
      </trkpt>
      <trkpt lat="43.00281" lon="-0.12378">
        <ele>871.57</ele>
        <time>2013-12-14T15:12:34Z</time>
      </trkpt>
      <trkpt lat="43.00283" lon="-0.12355">
        <ele>870.13</ele>
        <time>2013-12-14T15:12:39Z</time>
      </trkpt>
      <trkpt lat="43.00283" lon="-0.12335">
        <ele>866.77</ele>
        <time>2013-12-14T15:12:43Z</time>
      </trkpt>
      <trkpt lat="43.00287" lon="-0.1232">
        <ele>865.32</ele>
        <time>2013-12-14T15:12:46Z</time>
      </trkpt>
      <trkpt lat="43.00286" lon="-0.12302">
        <ele>862.44</ele>
        <time>2013-12-14T15:12:51Z</time>
      </trkpt>
      <trkpt lat="43.00287" lon="-0.12297">
        <ele>861.48</ele>
        <time>2013-12-14T15:12:52Z</time>
      </trkpt>
      <trkpt lat="43.00289" lon="-0.12282">
        <ele>861</ele>
        <time>2013-12-14T15:12:54Z</time>
      </trkpt>
      <trkpt lat="43.00289" lon="-0.12266">
        <ele>859.56</ele>
        <time>2013-12-14T15:12:57Z</time>
      </trkpt>
      <trkpt lat="43.00292" lon="-0.12234">
        <ele>855.23</ele>
        <time>2013-12-14T15:13:03Z</time>
      </trkpt>
      <trkpt lat="43.00294" lon="-0.12214">
        <ele>852.35</ele>
        <time>2013-12-14T15:13:07Z</time>
      </trkpt>
      <trkpt lat="43.00294" lon="-0.12201">
        <ele>849.94</ele>
        <time>2013-12-14T15:13:10Z</time>
      </trkpt>
      <trkpt lat="43.00295" lon="-0.12183">
        <ele>846.58</ele>
        <time>2013-12-14T15:13:14Z</time>
      </trkpt>
      <trkpt lat="43.00296" lon="-0.12178">
        <ele>845.62</ele>
        <time>2013-12-14T15:13:15Z</time>
      </trkpt>
      <trkpt lat="43.00301" lon="-0.1216">
        <ele>842.25</ele>
        <time>2013-12-14T15:13:20Z</time>
      </trkpt>
      <trkpt lat="43.00309" lon="-0.12152">
        <ele>840.33</ele>
        <time>2013-12-14T15:13:24Z</time>
      </trkpt>
      <trkpt lat="43.00314" lon="-0.12144">
        <ele>838.89</ele>
        <time>2013-12-14T15:13:26Z</time>
      </trkpt>
      <trkpt lat="43.00318" lon="-0.12134">
        <ele>837.45</ele>
        <time>2013-12-14T15:13:29Z</time>
      </trkpt>
      <trkpt lat="43.00321" lon="-0.1212">
        <ele>834.56</ele>
        <time>2013-12-14T15:13:33Z</time>
      </trkpt>
      <trkpt lat="43.00324" lon="-0.12105">
        <ele>830.72</ele>
        <time>2013-12-14T15:13:37Z</time>
      </trkpt>
      <trkpt lat="43.00326" lon="-0.12093">
        <ele>827.83</ele>
        <time>2013-12-14T15:13:41Z</time>
      </trkpt>
      <trkpt lat="43.0033" lon="-0.12081">
        <ele>824.47</ele>
        <time>2013-12-14T15:13:45Z</time>
      </trkpt>
      <trkpt lat="43.00327" lon="-0.12075">
        <ele>823.03</ele>
        <time>2013-12-14T15:13:48Z</time>
      </trkpt>
      <trkpt lat="43.00328" lon="-0.12075">
        <ele>822.55</ele>
        <time>2013-12-14T15:14:11Z</time>
      </trkpt>
      <trkpt lat="43.00328" lon="-0.12076">
        <ele>822.55</ele>
        <time>2013-12-14T15:14:24Z</time>
      </trkpt>
      <trkpt lat="43.0032" lon="-0.12063">
        <ele>818.7</ele>
        <time>2013-12-14T15:14:32Z</time>
      </trkpt>
      <trkpt lat="43.0032" lon="-0.1206">
        <ele>817.74</ele>
        <time>2013-12-14T15:14:34Z</time>
      </trkpt>
      <trkpt lat="43.00316" lon="-0.12047">
        <ele>815.82</ele>
        <time>2013-12-14T15:14:46Z</time>
      </trkpt>
      <trkpt lat="43.00313" lon="-0.12043">
        <ele>815.82</ele>
        <time>2013-12-14T15:15:20Z</time>
      </trkpt>
      <trkpt lat="43.00311" lon="-0.12036">
        <ele>815.34</ele>
        <time>2013-12-14T15:15:40Z</time>
      </trkpt>
      <trkpt lat="43.00311" lon="-0.12019">
        <ele>811.49</ele>
        <time>2013-12-14T15:15:45Z</time>
      </trkpt>
      <trkpt lat="43.00311" lon="-0.12015">
        <ele>810.05</ele>
        <time>2013-12-14T15:15:46Z</time>
      </trkpt>
      <trkpt lat="43.00308" lon="-0.12002">
        <ele>806.2</ele>
        <time>2013-12-14T15:15:51Z</time>
      </trkpt>
      <trkpt lat="43.00303" lon="-0.12004">
        <ele>802.36</ele>
        <time>2013-12-14T15:15:54Z</time>
      </trkpt>
      <trkpt lat="43.00302" lon="-0.1201">
        <ele>800.92</ele>
        <time>2013-12-14T15:15:56Z</time>
      </trkpt>
      <trkpt lat="43.00301" lon="-0.12016">
        <ele>800.92</ele>
        <time>2013-12-14T15:15:58Z</time>
      </trkpt>
      <trkpt lat="43.00299" lon="-0.12015">
        <ele>798.51</ele>
        <time>2013-12-14T15:16:00Z</time>
      </trkpt>
      <trkpt lat="43.00289" lon="-0.12014">
        <ele>795.63</ele>
        <time>2013-12-14T15:16:03Z</time>
      </trkpt>
      <trkpt lat="43.00281" lon="-0.12009">
        <ele>793.71</ele>
        <time>2013-12-14T15:16:05Z</time>
      </trkpt>
      <trkpt lat="43.00277" lon="-0.12008">
        <ele>794.19</ele>
        <time>2013-12-14T15:16:06Z</time>
      </trkpt>
      <trkpt lat="43.0028" lon="-0.12">
        <ele>793.22</ele>
        <time>2013-12-14T15:16:07Z</time>
      </trkpt>
      <trkpt lat="43.00287" lon="-0.11978">
        <ele>789.38</ele>
        <time>2013-12-14T15:16:11Z</time>
      </trkpt>
      <trkpt lat="43.00284" lon="-0.11971">
        <ele>786.5</ele>
        <time>2013-12-14T15:16:13Z</time>
      </trkpt>
      <trkpt lat="43.00281" lon="-0.11962">
        <ele>783.13</ele>
        <time>2013-12-14T15:16:15Z</time>
      </trkpt>
      <trkpt lat="43.00276" lon="-0.11952">
        <ele>778.81</ele>
        <time>2013-12-14T15:16:18Z</time>
      </trkpt>
      <trkpt lat="43.00272" lon="-0.11942">
        <ele>775.44</ele>
        <time>2013-12-14T15:16:21Z</time>
      </trkpt>
      <trkpt lat="43.0027" lon="-0.11934">
        <ele>772.08</ele>
        <time>2013-12-14T15:16:23Z</time>
      </trkpt>
      <trkpt lat="43.00278" lon="-0.11896">
        <ele>769.19</ele>
        <time>2013-12-14T15:16:28Z</time>
      </trkpt>
      <trkpt lat="43.00289" lon="-0.11869">
        <ele>766.79</ele>
        <time>2013-12-14T15:16:31Z</time>
      </trkpt>
      <trkpt lat="43.00292" lon="-0.1186">
        <ele>766.79</ele>
        <time>2013-12-14T15:16:32Z</time>
      </trkpt>
      <trkpt lat="43.00301" lon="-0.11837">
        <ele>764.87</ele>
        <time>2013-12-14T15:16:36Z</time>
      </trkpt>
      <trkpt lat="43.00313" lon="-0.11798">
        <ele>762.46</ele>
        <time>2013-12-14T15:16:44Z</time>
      </trkpt>
      <trkpt lat="43.00315" lon="-0.11787">
        <ele>761.5</ele>
        <time>2013-12-14T15:16:46Z</time>
      </trkpt>
      <trkpt lat="43.00335" lon="-0.11746">
        <ele>760.06</ele>
        <time>2013-12-14T15:16:54Z</time>
      </trkpt>
      <trkpt lat="43.00343" lon="-0.11717">
        <ele>758.62</ele>
        <time>2013-12-14T15:17:00Z</time>
      </trkpt>
      <trkpt lat="43.00361" lon="-0.1166">
        <ele>754.77</ele>
        <time>2013-12-14T15:17:08Z</time>
      </trkpt>
      <trkpt lat="43.00373" lon="-0.1164">
        <ele>754.29</ele>
        <time>2013-12-14T15:17:12Z</time>
      </trkpt>
      <trkpt lat="43.00377" lon="-0.11623">
        <ele>752.85</ele>
        <time>2013-12-14T15:17:15Z</time>
      </trkpt>
      <trkpt lat="43.00398" lon="-0.11591">
        <ele>749.49</ele>
        <time>2013-12-14T15:17:21Z</time>
      </trkpt>
      <trkpt lat="43.004" lon="-0.11591">
        <ele>748.52</ele>
        <time>2013-12-14T15:17:22Z</time>
      </trkpt>
      <trkpt lat="43.00416" lon="-0.11588">
        <ele>745.64</ele>
        <time>2013-12-14T15:17:24Z</time>
      </trkpt>
      <trkpt lat="43.00429" lon="-0.11587">
        <ele>745.16</ele>
        <time>2013-12-14T15:17:26Z</time>
      </trkpt>
      <trkpt lat="43.00459" lon="-0.11588">
        <ele>741.79</ele>
        <time>2013-12-14T15:17:32Z</time>
      </trkpt>
      <trkpt lat="43.00474" lon="-0.11588">
        <ele>738.91</ele>
        <time>2013-12-14T15:17:35Z</time>
      </trkpt>
      <trkpt lat="43.00511" lon="-0.11588">
        <ele>736.51</ele>
        <time>2013-12-14T15:17:44Z</time>
      </trkpt>
      <trkpt lat="43.00515" lon="-0.11589">
        <ele>736.03</ele>
        <time>2013-12-14T15:17:46Z</time>
      </trkpt>
      <trkpt lat="43.00533" lon="-0.11587">
        <ele>733.14</ele>
        <time>2013-12-14T15:17:52Z</time>
      </trkpt>
      <trkpt lat="43.00537" lon="-0.11588">
        <ele>732.66</ele>
        <time>2013-12-14T15:17:53Z</time>
      </trkpt>
      <trkpt lat="43.00568" lon="-0.11594">
        <ele>732.18</ele>
        <time>2013-12-14T15:18:03Z</time>
      </trkpt>
      <trkpt lat="43.00571" lon="-0.11595">
        <ele>731.7</ele>
        <time>2013-12-14T15:18:04Z</time>
      </trkpt>
      <trkpt lat="43.00581" lon="-0.11597">
        <ele>729.3</ele>
        <time>2013-12-14T15:18:09Z</time>
      </trkpt>
      <trkpt lat="43.00592" lon="-0.11599">
        <ele>727.37</ele>
        <time>2013-12-14T15:18:14Z</time>
      </trkpt>
      <trkpt lat="43.00596" lon="-0.11595">
        <ele>725.93</ele>
        <time>2013-12-14T15:18:17Z</time>
      </trkpt>
      <trkpt lat="43.00596" lon="-0.11593">
        <ele>724.97</ele>
        <time>2013-12-14T15:18:19Z</time>
      </trkpt>
      <trkpt lat="43.00591" lon="-0.11584">
        <ele>721.61</ele>
        <time>2013-12-14T15:18:23Z</time>
      </trkpt>
      <trkpt lat="43.00584" lon="-0.11575">
        <ele>718.24</ele>
        <time>2013-12-14T15:18:28Z</time>
      </trkpt>
      <trkpt lat="43.00584" lon="-0.11571">
        <ele>717.28</ele>
        <time>2013-12-14T15:18:30Z</time>
      </trkpt>
      <trkpt lat="43.00584" lon="-0.11569">
        <ele>716.8</ele>
        <time>2013-12-14T15:18:31Z</time>
      </trkpt>
      <trkpt lat="43.00579" lon="-0.11562">
        <ele>712.95</ele>
        <time>2013-12-14T15:18:35Z</time>
      </trkpt>
      <trkpt lat="43.00574" lon="-0.1156">
        <ele>711.51</ele>
        <time>2013-12-14T15:18:37Z</time>
      </trkpt>
      <trkpt lat="43.00555" lon="-0.11552">
        <ele>709.59</ele>
        <time>2013-12-14T15:18:46Z</time>
      </trkpt>
      <trkpt lat="43.00553" lon="-0.11553">
        <ele>709.59</ele>
        <time>2013-12-14T15:18:59Z</time>
      </trkpt>
      <trkpt lat="43.00549" lon="-0.11549">
        <ele>707.67</ele>
        <time>2013-12-14T15:19:05Z</time>
      </trkpt>
      <trkpt lat="43.00537" lon="-0.1154">
        <ele>704.78</ele>
        <time>2013-12-14T15:19:09Z</time>
      </trkpt>
      <trkpt lat="43.00532" lon="-0.11534">
        <ele>702.86</ele>
        <time>2013-12-14T15:19:11Z</time>
      </trkpt>
      <trkpt lat="43.00535" lon="-0.1152">
        <ele>698.53</ele>
        <time>2013-12-14T15:19:16Z</time>
      </trkpt>
      <trkpt lat="43.00536" lon="-0.11516">
        <ele>696.61</ele>
        <time>2013-12-14T15:19:17Z</time>
      </trkpt>
      <trkpt lat="43.00537" lon="-0.11514">
        <ele>695.65</ele>
        <time>2013-12-14T15:19:18Z</time>
      </trkpt>
      <trkpt lat="43.00538" lon="-0.11493">
        <ele>691.81</ele>
        <time>2013-12-14T15:19:24Z</time>
      </trkpt>
      <trkpt lat="43.00533" lon="-0.11483">
        <ele>688.44</ele>
        <time>2013-12-14T15:19:27Z</time>
      </trkpt>
      <trkpt lat="43.0053" lon="-0.11472">
        <ele>685.56</ele>
        <time>2013-12-14T15:19:29Z</time>
      </trkpt>
      <trkpt lat="43.00528" lon="-0.11457">
        <ele>681.23</ele>
        <time>2013-12-14T15:19:32Z</time>
      </trkpt>
      <trkpt lat="43.00526" lon="-0.11441">
        <ele>677.87</ele>
        <time>2013-12-14T15:19:35Z</time>
      </trkpt>
      <trkpt lat="43.00522" lon="-0.11423">
        <ele>674.02</ele>
        <time>2013-12-14T15:19:38Z</time>
      </trkpt>
      <trkpt lat="43.0052" lon="-0.11419">
        <ele>672.58</ele>
        <time>2013-12-14T15:19:39Z</time>
      </trkpt>
      <trkpt lat="43.00522" lon="-0.11406">
        <ele>667.29</ele>
        <time>2013-12-14T15:19:42Z</time>
      </trkpt>
      <trkpt lat="43.00521" lon="-0.11397">
        <ele>664.89</ele>
        <time>2013-12-14T15:19:44Z</time>
      </trkpt>
      <trkpt lat="43.00508" lon="-0.11386">
        <ele>660.08</ele>
        <time>2013-12-14T15:19:49Z</time>
      </trkpt>
      <trkpt lat="43.00505" lon="-0.11386">
        <ele>659.6</ele>
        <time>2013-12-14T15:19:51Z</time>
      </trkpt>
      <trkpt lat="43.00504" lon="-0.11382">
        <ele>658.16</ele>
        <time>2013-12-14T15:19:53Z</time>
      </trkpt>
      <trkpt lat="43.0051" lon="-0.11371">
        <ele>654.31</ele>
        <time>2013-12-14T15:19:58Z</time>
      </trkpt>
      <trkpt lat="43.00511" lon="-0.11368">
        <ele>653.83</ele>
        <time>2013-12-14T15:19:59Z</time>
      </trkpt>
      <trkpt lat="43.00524" lon="-0.11357">
        <ele>650.47</ele>
        <time>2013-12-14T15:20:04Z</time>
      </trkpt>
      <trkpt lat="43.00537" lon="-0.11347">
        <ele>648.07</ele>
        <time>2013-12-14T15:20:08Z</time>
      </trkpt>
      <trkpt lat="43.00539" lon="-0.11335">
        <ele>642.78</ele>
        <time>2013-12-14T15:20:13Z</time>
      </trkpt>
      <trkpt lat="43.00539" lon="-0.11318">
        <ele>639.89</ele>
        <time>2013-12-14T15:20:16Z</time>
      </trkpt>
      <trkpt lat="43.00535" lon="-0.11304">
        <ele>638.45</ele>
        <time>2013-12-14T15:20:19Z</time>
      </trkpt>
      <trkpt lat="43.00537" lon="-0.11298">
        <ele>637.49</ele>
        <time>2013-12-14T15:20:27Z</time>
      </trkpt>
      <trkpt lat="43.00536" lon="-0.113">
        <ele>637.97</ele>
        <time>2013-12-14T15:20:47Z</time>
      </trkpt>
      <trkpt lat="43.00536" lon="-0.113">
        <ele>638.45</ele>
        <time>2013-12-14T15:20:53Z</time>
      </trkpt>
      <trkpt lat="43.00543" lon="-0.11288">
        <ele>637.01</ele>
        <time>2013-12-14T15:20:58Z</time>
      </trkpt>
      <trkpt lat="43.00549" lon="-0.11281">
        <ele>636.05</ele>
        <time>2013-12-14T15:21:00Z</time>
      </trkpt>
      <trkpt lat="43.00568" lon="-0.11261">
        <ele>633.65</ele>
        <time>2013-12-14T15:21:05Z</time>
      </trkpt>
      <trkpt lat="43.00625" lon="-0.1125">
        <ele>630.76</ele>
        <time>2013-12-14T15:21:16Z</time>
      </trkpt>
      <trkpt lat="43.00644" lon="-0.11249">
        <ele>630.76</ele>
        <time>2013-12-14T15:21:20Z</time>
      </trkpt>
      <trkpt lat="43.00712" lon="-0.11235">
        <ele>629.32</ele>
        <time>2013-12-14T15:21:34Z</time>
      </trkpt>
      <trkpt lat="43.00765" lon="-0.11214">
        <ele>632.68</ele>
        <time>2013-12-14T15:21:47Z</time>
      </trkpt>
      <trkpt lat="43.00781" lon="-0.11207">
        <ele>632.68</ele>
        <time>2013-12-14T15:21:51Z</time>
      </trkpt>
      <trkpt lat="43.00826" lon="-0.112">
        <ele>632.68</ele>
        <time>2013-12-14T15:22:03Z</time>
      </trkpt>
      <trkpt lat="43.00831" lon="-0.11198">
        <ele>631.72</ele>
        <time>2013-12-14T15:22:04Z</time>
      </trkpt>
      <trkpt lat="43.00848" lon="-0.11188">
        <ele>629.8</ele>
        <time>2013-12-14T15:22:07Z</time>
      </trkpt>
      <trkpt lat="43.0086" lon="-0.1118">
        <ele>629.8</ele>
        <time>2013-12-14T15:22:09Z</time>
      </trkpt>
      <trkpt lat="43.00894" lon="-0.11156">
        <ele>629.8</ele>
        <time>2013-12-14T15:22:16Z</time>
      </trkpt>
      <trkpt lat="43.00944" lon="-0.11119">
        <ele>630.76</ele>
        <time>2013-12-14T15:22:31Z</time>
      </trkpt>
      <trkpt lat="43.00974" lon="-0.11104">
        <ele>629.32</ele>
        <time>2013-12-14T15:22:39Z</time>
      </trkpt>
      <trkpt lat="43.00992" lon="-0.1109">
        <ele>628.36</ele>
        <time>2013-12-14T15:22:43Z</time>
      </trkpt>
      <trkpt lat="43.01007" lon="-0.11076">
        <ele>627.4</ele>
        <time>2013-12-14T15:22:46Z</time>
      </trkpt>
      <trkpt lat="43.0103" lon="-0.11069">
        <ele>624.03</ele>
        <time>2013-12-14T15:22:50Z</time>
      </trkpt>
      <trkpt lat="43.0106" lon="-0.1108">
        <ele>620.67</ele>
        <time>2013-12-14T15:22:54Z</time>
      </trkpt>
      <trkpt lat="43.01076" lon="-0.11085">
        <ele>618.26</ele>
        <time>2013-12-14T15:22:56Z</time>
      </trkpt>
      <trkpt lat="43.01108" lon="-0.11108">
        <ele>614.9</ele>
        <time>2013-12-14T15:23:00Z</time>
      </trkpt>
      <trkpt lat="43.0113" lon="-0.11113">
        <ele>615.38</ele>
        <time>2013-12-14T15:23:04Z</time>
      </trkpt>
      <trkpt lat="43.01152" lon="-0.11101">
        <ele>614.9</ele>
        <time>2013-12-14T15:23:14Z</time>
      </trkpt>
      <trkpt lat="43.01161" lon="-0.11096">
        <ele>614.9</ele>
        <time>2013-12-14T15:23:19Z</time>
      </trkpt>
      <trkpt lat="43.01199" lon="-0.11057">
        <ele>615.38</ele>
        <time>2013-12-14T15:23:31Z</time>
      </trkpt>
      <trkpt lat="43.01223" lon="-0.11046">
        <ele>618.26</ele>
        <time>2013-12-14T15:23:40Z</time>
      </trkpt>
      <trkpt lat="43.01226" lon="-0.11041">
        <ele>618.75</ele>
        <time>2013-12-14T15:23:42Z</time>
      </trkpt>
      <trkpt lat="43.01232" lon="-0.11026">
        <ele>619.23</ele>
        <time>2013-12-14T15:23:46Z</time>
      </trkpt>
      <trkpt lat="43.0124" lon="-0.11014">
        <ele>619.71</ele>
        <time>2013-12-14T15:23:50Z</time>
      </trkpt>
      <trkpt lat="43.01259" lon="-0.10989">
        <ele>617.78</ele>
        <time>2013-12-14T15:23:58Z</time>
      </trkpt>
      <trkpt lat="43.01262" lon="-0.10977">
        <ele>616.82</ele>
        <time>2013-12-14T15:24:00Z</time>
      </trkpt>
      <trkpt lat="43.01269" lon="-0.10945">
        <ele>614.42</ele>
        <time>2013-12-14T15:24:05Z</time>
      </trkpt>
      <trkpt lat="43.01275" lon="-0.10941">
        <ele>614.42</ele>
        <time>2013-12-14T15:24:06Z</time>
      </trkpt>
      <trkpt lat="43.01285" lon="-0.10933">
        <ele>613.94</ele>
        <time>2013-12-14T15:24:08Z</time>
      </trkpt>
      <trkpt lat="43.01301" lon="-0.10912">
        <ele>613.94</ele>
        <time>2013-12-14T15:24:12Z</time>
      </trkpt>
      <trkpt lat="43.0133" lon="-0.10827">
        <ele>611.06</ele>
        <time>2013-12-14T15:24:23Z</time>
      </trkpt>
      <trkpt lat="43.01333" lon="-0.10817">
        <ele>611.06</ele>
        <time>2013-12-14T15:24:24Z</time>
      </trkpt>
      <trkpt lat="43.01336" lon="-0.10756">
        <ele>608.17</ele>
        <time>2013-12-14T15:24:30Z</time>
      </trkpt>
      <trkpt lat="43.0135" lon="-0.1071">
        <ele>607.69</ele>
        <time>2013-12-14T15:24:37Z</time>
      </trkpt>
      <trkpt lat="43.01352" lon="-0.10705">
        <ele>607.69</ele>
        <time>2013-12-14T15:24:38Z</time>
      </trkpt>
      <trkpt lat="43.01355" lon="-0.107">
        <ele>607.69</ele>
        <time>2013-12-14T15:24:39Z</time>
      </trkpt>
      <trkpt lat="43.0136" lon="-0.10688">
        <ele>607.21</ele>
        <time>2013-12-14T15:24:41Z</time>
      </trkpt>
      <trkpt lat="43.01364" lon="-0.10675">
        <ele>607.21</ele>
        <time>2013-12-14T15:24:43Z</time>
      </trkpt>
      <trkpt lat="43.01387" lon="-0.10634">
        <ele>608.65</ele>
        <time>2013-12-14T15:24:51Z</time>
      </trkpt>
      <trkpt lat="43.01398" lon="-0.10609">
        <ele>609.13</ele>
        <time>2013-12-14T15:24:56Z</time>
      </trkpt>
      <trkpt lat="43.014" lon="-0.10604">
        <ele>609.13</ele>
        <time>2013-12-14T15:24:57Z</time>
      </trkpt>
      <trkpt lat="43.01405" lon="-0.10596">
        <ele>609.61</ele>
        <time>2013-12-14T15:24:59Z</time>
      </trkpt>
      <trkpt lat="43.01408" lon="-0.10592">
        <ele>609.61</ele>
        <time>2013-12-14T15:25:00Z</time>
      </trkpt>
      <trkpt lat="43.01412" lon="-0.10589">
        <ele>610.09</ele>
        <time>2013-12-14T15:25:01Z</time>
      </trkpt>
      <trkpt lat="43.01415" lon="-0.10585">
        <ele>610.09</ele>
        <time>2013-12-14T15:25:02Z</time>
      </trkpt>
      <trkpt lat="43.01418" lon="-0.10581">
        <ele>610.57</ele>
        <time>2013-12-14T15:25:03Z</time>
      </trkpt>
      <trkpt lat="43.01427" lon="-0.10567">
        <ele>611.06</ele>
        <time>2013-12-14T15:25:06Z</time>
      </trkpt>
      <trkpt lat="43.01431" lon="-0.10562">
        <ele>611.54</ele>
        <time>2013-12-14T15:25:07Z</time>
      </trkpt>
      <trkpt lat="43.01486" lon="-0.10485">
        <ele>609.61</ele>
        <time>2013-12-14T15:25:23Z</time>
      </trkpt>
      <trkpt lat="43.01489" lon="-0.1048">
        <ele>609.61</ele>
        <time>2013-12-14T15:25:24Z</time>
      </trkpt>
      <trkpt lat="43.01506" lon="-0.10456">
        <ele>608.17</ele>
        <time>2013-12-14T15:25:29Z</time>
      </trkpt>
      <trkpt lat="43.01507" lon="-0.10437">
        <ele>605.29</ele>
        <time>2013-12-14T15:25:35Z</time>
      </trkpt>
      <trkpt lat="43.01538" lon="-0.10412">
        <ele>599.52</ele>
        <time>2013-12-14T15:25:42Z</time>
      </trkpt>
      <trkpt lat="43.01545" lon="-0.10401">
        <ele>597.12</ele>
        <time>2013-12-14T15:25:44Z</time>
      </trkpt>
      <trkpt lat="43.01553" lon="-0.10384">
        <ele>591.83</ele>
        <time>2013-12-14T15:25:47Z</time>
      </trkpt>
      <trkpt lat="43.01558" lon="-0.10368">
        <ele>587.5</ele>
        <time>2013-12-14T15:25:50Z</time>
      </trkpt>
      <trkpt lat="43.01561" lon="-0.10361">
        <ele>585.58</ele>
        <time>2013-12-14T15:25:52Z</time>
      </trkpt>
      <trkpt lat="43.01571" lon="-0.10348">
        <ele>582.7</ele>
        <time>2013-12-14T15:25:55Z</time>
      </trkpt>
      <trkpt lat="43.01591" lon="-0.10346">
        <ele>586.06</ele>
        <time>2013-12-14T15:26:02Z</time>
      </trkpt>
      <trkpt lat="43.01596" lon="-0.10345">
        <ele>587.02</ele>
        <time>2013-12-14T15:26:04Z</time>
      </trkpt>
      <trkpt lat="43.01609" lon="-0.10335">
        <ele>588.95</ele>
        <time>2013-12-14T15:26:12Z</time>
      </trkpt>
      <trkpt lat="43.01621" lon="-0.10331">
        <ele>588.46</ele>
        <time>2013-12-14T15:26:16Z</time>
      </trkpt>
      <trkpt lat="43.01631" lon="-0.10325">
        <ele>588.46</ele>
        <time>2013-12-14T15:26:19Z</time>
      </trkpt>
      <trkpt lat="43.0165" lon="-0.10316">
        <ele>586.06</ele>
        <time>2013-12-14T15:26:24Z</time>
      </trkpt>
      <trkpt lat="43.01658" lon="-0.10313">
        <ele>585.1</ele>
        <time>2013-12-14T15:26:27Z</time>
      </trkpt>
      <trkpt lat="43.01665" lon="-0.10302">
        <ele>581.73</ele>
        <time>2013-12-14T15:26:31Z</time>
      </trkpt>
      <trkpt lat="43.01678" lon="-0.10273">
        <ele>575.97</ele>
        <time>2013-12-14T15:26:35Z</time>
      </trkpt>
      <trkpt lat="43.01681" lon="-0.1027">
        <ele>575.97</ele>
        <time>2013-12-14T15:26:36Z</time>
      </trkpt>
      <trkpt lat="43.01693" lon="-0.10259">
        <ele>575.49</ele>
        <time>2013-12-14T15:26:40Z</time>
      </trkpt>
      <trkpt lat="43.01699" lon="-0.10251">
        <ele>574.53</ele>
        <time>2013-12-14T15:26:42Z</time>
      </trkpt>
      <trkpt lat="43.01704" lon="-0.10247">
        <ele>573.56</ele>
        <time>2013-12-14T15:26:43Z</time>
      </trkpt>
      <trkpt lat="43.0172" lon="-0.10233">
        <ele>571.16</ele>
        <time>2013-12-14T15:26:47Z</time>
      </trkpt>
      <trkpt lat="43.01722" lon="-0.10229">
        <ele>569.72</ele>
        <time>2013-12-14T15:26:49Z</time>
      </trkpt>
      <trkpt lat="43.01727" lon="-0.10219">
        <ele>565.39</ele>
        <time>2013-12-14T15:26:54Z</time>
      </trkpt>
      <trkpt lat="43.0173" lon="-0.10217">
        <ele>563.95</ele>
        <time>2013-12-14T15:26:55Z</time>
      </trkpt>
      <trkpt lat="43.01742" lon="-0.10217">
        <ele>558.66</ele>
        <time>2013-12-14T15:26:59Z</time>
      </trkpt>
      <trkpt lat="43.01752" lon="-0.1022">
        <ele>554.82</ele>
        <time>2013-12-14T15:27:02Z</time>
      </trkpt>
      <trkpt lat="43.01755" lon="-0.10222">
        <ele>553.86</ele>
        <time>2013-12-14T15:27:03Z</time>
      </trkpt>
      <trkpt lat="43.0176" lon="-0.10221">
        <ele>551.45</ele>
        <time>2013-12-14T15:27:05Z</time>
      </trkpt>
      <trkpt lat="43.01762" lon="-0.10219">
        <ele>550.49</ele>
        <time>2013-12-14T15:27:06Z</time>
      </trkpt>
      <trkpt lat="43.01765" lon="-0.10216">
        <ele>549.53</ele>
        <time>2013-12-14T15:27:07Z</time>
      </trkpt>
      <trkpt lat="43.01773" lon="-0.10218">
        <ele>547.13</ele>
        <time>2013-12-14T15:27:11Z</time>
      </trkpt>
      <trkpt lat="43.01781" lon="-0.1022">
        <ele>544.24</ele>
        <time>2013-12-14T15:27:13Z</time>
      </trkpt>
      <trkpt lat="43.01802" lon="-0.10222">
        <ele>539.92</ele>
        <time>2013-12-14T15:27:17Z</time>
      </trkpt>
      <trkpt lat="43.01808" lon="-0.10225">
        <ele>539.92</ele>
        <time>2013-12-14T15:27:18Z</time>
      </trkpt>
      <trkpt lat="43.01823" lon="-0.102">
        <ele>535.59</ele>
        <time>2013-12-14T15:27:23Z</time>
      </trkpt>
      <trkpt lat="43.01826" lon="-0.10192">
        <ele>534.15</ele>
        <time>2013-12-14T15:27:24Z</time>
      </trkpt>
      <trkpt lat="43.0183" lon="-0.10168">
        <ele>529.34</ele>
        <time>2013-12-14T15:27:27Z</time>
      </trkpt>
      <trkpt lat="43.01832" lon="-0.10159">
        <ele>527.9</ele>
        <time>2013-12-14T15:27:28Z</time>
      </trkpt>
      <trkpt lat="43.01834" lon="-0.10127">
        <ele>522.61</ele>
        <time>2013-12-14T15:27:32Z</time>
      </trkpt>
      <trkpt lat="43.01838" lon="-0.10117">
        <ele>520.69</ele>
        <time>2013-12-14T15:27:34Z</time>
      </trkpt>
      <trkpt lat="43.01832" lon="-0.10108">
        <ele>520.21</ele>
        <time>2013-12-14T15:27:42Z</time>
      </trkpt>
      <trkpt lat="43.01835" lon="-0.10106">
        <ele>520.21</ele>
        <time>2013-12-14T15:28:10Z</time>
      </trkpt>
      <trkpt lat="43.01835" lon="-0.10106">
        <ele>520.21</ele>
        <time>2013-12-14T15:28:17Z</time>
      </trkpt>
      <trkpt lat="43.01829" lon="-0.10097">
        <ele>519.73</ele>
        <time>2013-12-14T15:28:22Z</time>
      </trkpt>
      <trkpt lat="43.01816" lon="-0.1009">
        <ele>519.25</ele>
        <time>2013-12-14T15:28:25Z</time>
      </trkpt>
      <trkpt lat="43.01798" lon="-0.10085">
        <ele>519.73</ele>
        <time>2013-12-14T15:28:28Z</time>
      </trkpt>
      <trkpt lat="43.01773" lon="-0.10079">
        <ele>518.29</ele>
        <time>2013-12-14T15:28:32Z</time>
      </trkpt>
      <trkpt lat="43.01752" lon="-0.10078">
        <ele>515.88</ele>
        <time>2013-12-14T15:28:35Z</time>
      </trkpt>
      <trkpt lat="43.01739" lon="-0.10082">
        <ele>515.88</ele>
        <time>2013-12-14T15:28:37Z</time>
      </trkpt>
      <trkpt lat="43.01708" lon="-0.10064">
        <ele>519.25</ele>
        <time>2013-12-14T15:28:44Z</time>
      </trkpt>
      <trkpt lat="43.01706" lon="-0.10054">
        <ele>521.17</ele>
        <time>2013-12-14T15:28:47Z</time>
      </trkpt>
      <trkpt lat="43.01705" lon="-0.10043">
        <ele>522.13</ele>
        <time>2013-12-14T15:28:50Z</time>
      </trkpt>
      <trkpt lat="43.01695" lon="-0.10002">
        <ele>522.13</ele>
        <time>2013-12-14T15:29:00Z</time>
      </trkpt>
      <trkpt lat="43.01681" lon="-0.09992">
        <ele>521.65</ele>
        <time>2013-12-14T15:29:03Z</time>
      </trkpt>
      <trkpt lat="43.01649" lon="-0.09986">
        <ele>518.29</ele>
        <time>2013-12-14T15:29:09Z</time>
      </trkpt>
      <trkpt lat="43.01638" lon="-0.09987">
        <ele>517.33</ele>
        <time>2013-12-14T15:29:11Z</time>
      </trkpt>
      <trkpt lat="43.01614" lon="-0.09994">
        <ele>515.4</ele>
        <time>2013-12-14T15:29:15Z</time>
      </trkpt>
      <trkpt lat="43.01575" lon="-0.10006">
        <ele>511.08</ele>
        <time>2013-12-14T15:29:21Z</time>
      </trkpt>
      <trkpt lat="43.01547" lon="-0.10016">
        <ele>508.19</ele>
        <time>2013-12-14T15:29:25Z</time>
      </trkpt>
      <trkpt lat="43.0154" lon="-0.10019">
        <ele>508.19</ele>
        <time>2013-12-14T15:29:26Z</time>
      </trkpt>
      <trkpt lat="43.01502" lon="-0.10045">
        <ele>502.91</ele>
        <time>2013-12-14T15:29:32Z</time>
      </trkpt>
      <trkpt lat="43.01472" lon="-0.10073">
        <ele>500.5</ele>
        <time>2013-12-14T15:29:36Z</time>
      </trkpt>
      <trkpt lat="43.0144" lon="-0.10112">
        <ele>497.14</ele>
        <time>2013-12-14T15:29:41Z</time>
      </trkpt>
      <trkpt lat="43.01432" lon="-0.10118">
        <ele>496.66</ele>
        <time>2013-12-14T15:29:42Z</time>
      </trkpt>
      <trkpt lat="43.01396" lon="-0.10134">
        <ele>497.62</ele>
        <time>2013-12-14T15:29:47Z</time>
      </trkpt>
      <trkpt lat="43.01378" lon="-0.10134">
        <ele>500.02</ele>
        <time>2013-12-14T15:29:51Z</time>
      </trkpt>
      <trkpt lat="43.01357" lon="-0.10132">
        <ele>498.1</ele>
        <time>2013-12-14T15:29:58Z</time>
      </trkpt>
      <trkpt lat="43.01336" lon="-0.10127">
        <ele>496.66</ele>
        <time>2013-12-14T15:30:02Z</time>
      </trkpt>
      <trkpt lat="43.01313" lon="-0.1012">
        <ele>496.66</ele>
        <time>2013-12-14T15:30:06Z</time>
      </trkpt>
      <trkpt lat="43.01285" lon="-0.10114">
        <ele>492.81</ele>
        <time>2013-12-14T15:30:10Z</time>
      </trkpt>
      <trkpt lat="43.01277" lon="-0.10115">
        <ele>490.89</ele>
        <time>2013-12-14T15:30:11Z</time>
      </trkpt>
      <trkpt lat="43.01254" lon="-0.1012">
        <ele>489.45</ele>
        <time>2013-12-14T15:30:14Z</time>
      </trkpt>
      <trkpt lat="43.01229" lon="-0.10131">
        <ele>485.6</ele>
        <time>2013-12-14T15:30:17Z</time>
      </trkpt>
      <trkpt lat="43.01199" lon="-0.10135">
        <ele>478.39</ele>
        <time>2013-12-14T15:30:20Z</time>
      </trkpt>
      <trkpt lat="43.01179" lon="-0.10143">
        <ele>475.99</ele>
        <time>2013-12-14T15:30:22Z</time>
      </trkpt>
      <trkpt lat="43.0117" lon="-0.10145">
        <ele>475.51</ele>
        <time>2013-12-14T15:30:23Z</time>
      </trkpt>
      <trkpt lat="43.01163" lon="-0.10144">
        <ele>475.51</ele>
        <time>2013-12-14T15:30:24Z</time>
      </trkpt>
      <trkpt lat="43.0115" lon="-0.1014">
        <ele>473.11</ele>
        <time>2013-12-14T15:30:28Z</time>
      </trkpt>
      <trkpt lat="43.01131" lon="-0.10138">
        <ele>469.74</ele>
        <time>2013-12-14T15:30:32Z</time>
      </trkpt>
      <trkpt lat="43.01116" lon="-0.10137">
        <ele>467.82</ele>
        <time>2013-12-14T15:30:34Z</time>
      </trkpt>
      <trkpt lat="43.01088" lon="-0.10121">
        <ele>466.38</ele>
        <time>2013-12-14T15:30:38Z</time>
      </trkpt>
      <trkpt lat="43.0106" lon="-0.10118">
        <ele>466.38</ele>
        <time>2013-12-14T15:30:42Z</time>
      </trkpt>
      <trkpt lat="43.0105" lon="-0.10121">
        <ele>467.82</ele>
        <time>2013-12-14T15:30:44Z</time>
      </trkpt>
      <trkpt lat="43.01015" lon="-0.10124">
        <ele>468.3</ele>
        <time>2013-12-14T15:30:52Z</time>
      </trkpt>
      <trkpt lat="43.00981" lon="-0.10113">
        <ele>468.3</ele>
        <time>2013-12-14T15:31:02Z</time>
      </trkpt>
      <trkpt lat="43.00976" lon="-0.10113">
        <ele>469.26</ele>
        <time>2013-12-14T15:31:12Z</time>
      </trkpt>
      <trkpt lat="43.00974" lon="-0.10113">
        <ele>468.78</ele>
        <time>2013-12-14T15:31:43Z</time>
      </trkpt>
      <trkpt lat="43.00973" lon="-0.10113">
        <ele>469.26</ele>
        <time>2013-12-14T15:32:13Z</time>
      </trkpt>
      <trkpt lat="43.00972" lon="-0.10113">
        <ele>469.26</ele>
        <time>2013-12-14T15:32:41Z</time>
      </trkpt>
      <trkpt lat="43.00971" lon="-0.10113">
        <ele>469.74</ele>
        <time>2013-12-14T15:32:59Z</time>
      </trkpt>
      <trkpt lat="43.00968" lon="-0.10115">
        <ele>469.74</ele>
        <time>2013-12-14T15:33:03Z</time>
      </trkpt>
      <trkpt lat="43.00947" lon="-0.10119">
        <ele>469.26</ele>
        <time>2013-12-14T15:33:11Z</time>
      </trkpt>
      <trkpt lat="43.00935" lon="-0.10112">
        <ele>467.82</ele>
        <time>2013-12-14T15:33:14Z</time>
      </trkpt>
      <trkpt lat="43.00915" lon="-0.10101">
        <ele>463.49</ele>
        <time>2013-12-14T15:33:18Z</time>
      </trkpt>
      <trkpt lat="43.00898" lon="-0.10113">
        <ele>464.93</ele>
        <time>2013-12-14T15:33:22Z</time>
      </trkpt>
      <trkpt lat="43.00895" lon="-0.10117">
        <ele>465.42</ele>
        <time>2013-12-14T15:33:23Z</time>
      </trkpt>
      <trkpt lat="43.00889" lon="-0.10133">
        <ele>467.34</ele>
        <time>2013-12-14T15:33:27Z</time>
      </trkpt>
      <trkpt lat="43.00878" lon="-0.10148">
        <ele>470.7</ele>
        <time>2013-12-14T15:33:34Z</time>
      </trkpt>
      <trkpt lat="43.00878" lon="-0.1015">
        <ele>470.7</ele>
        <time>2013-12-14T15:33:35Z</time>
      </trkpt>
      <trkpt lat="43.00859" lon="-0.10166">
        <ele>472.14</ele>
        <time>2013-12-14T15:33:45Z</time>
      </trkpt>
      <trkpt lat="43.00848" lon="-0.10169">
        <ele>474.07</ele>
        <time>2013-12-14T15:33:50Z</time>
      </trkpt>
      <trkpt lat="43.00842" lon="-0.10175">
        <ele>474.07</ele>
        <time>2013-12-14T15:33:53Z</time>
      </trkpt>
      <trkpt lat="43.00831" lon="-0.10179">
        <ele>475.03</ele>
        <time>2013-12-14T15:33:57Z</time>
      </trkpt>
      <trkpt lat="43.00813" lon="-0.10187">
        <ele>476.47</ele>
        <time>2013-12-14T15:34:04Z</time>
      </trkpt>
      <trkpt lat="43.00782" lon="-0.10207">
        <ele>477.91</ele>
        <time>2013-12-14T15:34:15Z</time>
      </trkpt>
      <trkpt lat="43.00754" lon="-0.10228">
        <ele>479.35</ele>
        <time>2013-12-14T15:34:25Z</time>
      </trkpt>
      <trkpt lat="43.00748" lon="-0.10236">
        <ele>479.35</ele>
        <time>2013-12-14T15:34:29Z</time>
      </trkpt>
      <trkpt lat="43.00739" lon="-0.10244">
        <ele>480.32</ele>
        <time>2013-12-14T15:34:36Z</time>
      </trkpt>
      <trkpt lat="43.00721" lon="-0.10254">
        <ele>480.8</ele>
        <time>2013-12-14T15:34:46Z</time>
      </trkpt>
      <trkpt lat="43.00693" lon="-0.1026">
        <ele>481.76</ele>
        <time>2013-12-14T15:35:00Z</time>
      </trkpt>
      <trkpt lat="43.00665" lon="-0.1027">
        <ele>482.24</ele>
        <time>2013-12-14T15:35:13Z</time>
      </trkpt>
      <trkpt lat="43.00631" lon="-0.10277">
        <ele>482.72</ele>
        <time>2013-12-14T15:35:26Z</time>
      </trkpt>
      <trkpt lat="43.00632" lon="-0.10252">
        <ele>480.8</ele>
        <time>2013-12-14T15:35:33Z</time>
      </trkpt>
      <trkpt lat="43.00639" lon="-0.10223">
        <ele>478.87</ele>
        <time>2013-12-14T15:35:40Z</time>
      </trkpt>
      <trkpt lat="43.00619" lon="-0.10198">
        <ele>474.55</ele>
        <time>2013-12-14T15:35:46Z</time>
      </trkpt>
      <trkpt lat="43.00604" lon="-0.10183">
        <ele>470.7</ele>
        <time>2013-12-14T15:35:49Z</time>
      </trkpt>
      <trkpt lat="43.0059" lon="-0.10179">
        <ele>467.34</ele>
        <time>2013-12-14T15:35:52Z</time>
      </trkpt>
      <trkpt lat="43.00588" lon="-0.10178">
        <ele>467.34</ele>
        <time>2013-12-14T15:35:53Z</time>
      </trkpt>
      <trkpt lat="43.00587" lon="-0.10177">
        <ele>467.34</ele>
        <time>2013-12-14T15:35:54Z</time>
      </trkpt>
      <trkpt lat="43.00584" lon="-0.10173">
        <ele>467.82</ele>
        <time>2013-12-14T15:35:57Z</time>
      </trkpt>
      <trkpt lat="43.00581" lon="-0.10173">
        <ele>467.34</ele>
        <time>2013-12-14T15:36:04Z</time>
      </trkpt>
      <trkpt lat="43.00554" lon="-0.10168">
        <ele>463.01</ele>
        <time>2013-12-14T15:36:10Z</time>
      </trkpt>
      <trkpt lat="43.00545" lon="-0.10164">
        <ele>462.05</ele>
        <time>2013-12-14T15:36:14Z</time>
      </trkpt>
      <trkpt lat="43.00546" lon="-0.10162">
        <ele>461.57</ele>
        <time>2013-12-14T15:36:15Z</time>
      </trkpt>
      <trkpt lat="43.00552" lon="-0.10156">
        <ele>461.57</ele>
        <time>2013-12-14T15:36:19Z</time>
      </trkpt>
      <trkpt lat="43.00558" lon="-0.10153">
        <ele>460.13</ele>
        <time>2013-12-14T15:36:22Z</time>
      </trkpt>
      <trkpt lat="43.00559" lon="-0.10152">
        <ele>459.65</ele>
        <time>2013-12-14T15:36:23Z</time>
      </trkpt>
      <trkpt lat="43.00571" lon="-0.10147">
        <ele>458.69</ele>
        <time>2013-12-14T15:36:26Z</time>
      </trkpt>
      <trkpt lat="43.00577" lon="-0.10106">
        <ele>458.21</ele>
        <time>2013-12-14T15:36:33Z</time>
      </trkpt>
      <trkpt lat="43.00582" lon="-0.10078">
        <ele>458.21</ele>
        <time>2013-12-14T15:36:40Z</time>
      </trkpt>
      <trkpt lat="43.00587" lon="-0.10038">
        <ele>457.72</ele>
        <time>2013-12-14T15:36:51Z</time>
      </trkpt>
      <trkpt lat="43.00589" lon="-0.10036">
        <ele>457.72</ele>
        <time>2013-12-14T15:36:52Z</time>
      </trkpt>
      <trkpt lat="43.00589" lon="-0.10026">
        <ele>456.28</ele>
        <time>2013-12-14T15:36:55Z</time>
      </trkpt>
      <trkpt lat="43.00587" lon="-0.10018">
        <ele>453.4</ele>
        <time>2013-12-14T15:36:57Z</time>
      </trkpt>
      <trkpt lat="43.00579" lon="-0.09988">
        <ele>448.59</ele>
        <time>2013-12-14T15:37:01Z</time>
      </trkpt>
      <trkpt lat="43.00577" lon="-0.0998">
        <ele>447.63</ele>
        <time>2013-12-14T15:37:02Z</time>
      </trkpt>
      <trkpt lat="43.00567" lon="-0.09947">
        <ele>443.79</ele>
        <time>2013-12-14T15:37:05Z</time>
      </trkpt>
      <trkpt lat="43.00566" lon="-0.09942">
        <ele>443.31</ele>
        <time>2013-12-14T15:37:06Z</time>
      </trkpt>
      <trkpt lat="43.00561" lon="-0.09926">
        <ele>441.86</ele>
        <time>2013-12-14T15:37:08Z</time>
      </trkpt>
      <trkpt lat="43.00557" lon="-0.0991">
        <ele>440.42</ele>
        <time>2013-12-14T15:37:10Z</time>
      </trkpt>
      <trkpt lat="43.00543" lon="-0.09875">
        <ele>440.42</ele>
        <time>2013-12-14T15:37:19Z</time>
      </trkpt>
      <trkpt lat="43.00541" lon="-0.09866">
        <ele>439.94</ele>
        <time>2013-12-14T15:37:23Z</time>
      </trkpt>
      <trkpt lat="43.00535" lon="-0.09849">
        <ele>439.94</ele>
        <time>2013-12-14T15:37:27Z</time>
      </trkpt>
      <trkpt lat="43.00536" lon="-0.09825">
        <ele>439.46</ele>
        <time>2013-12-14T15:37:31Z</time>
      </trkpt>
      <trkpt lat="43.0055" lon="-0.09727">
        <ele>436.58</ele>
        <time>2013-12-14T15:37:42Z</time>
      </trkpt>
      <trkpt lat="43.00556" lon="-0.09697">
        <ele>436.1</ele>
        <time>2013-12-14T15:37:45Z</time>
      </trkpt>
      <trkpt lat="43.0056" lon="-0.09678">
        <ele>435.13</ele>
        <time>2013-12-14T15:37:47Z</time>
      </trkpt>
      <trkpt lat="43.00572" lon="-0.09655">
        <ele>434.17</ele>
        <time>2013-12-14T15:37:50Z</time>
      </trkpt>
      <trkpt lat="43.00579" lon="-0.09623">
        <ele>434.17</ele>
        <time>2013-12-14T15:37:54Z</time>
      </trkpt>
      <trkpt lat="43.00581" lon="-0.09596">
        <ele>433.69</ele>
        <time>2013-12-14T15:38:01Z</time>
      </trkpt>
      <trkpt lat="43.00582" lon="-0.09595">
        <ele>433.21</ele>
        <time>2013-12-14T15:38:02Z</time>
      </trkpt>
      <trkpt lat="43.00587" lon="-0.09578">
        <ele>433.69</ele>
        <time>2013-12-14T15:38:09Z</time>
      </trkpt>
      <trkpt lat="43.00605" lon="-0.09575">
        <ele>433.21</ele>
        <time>2013-12-14T15:38:14Z</time>
      </trkpt>
      <trkpt lat="43.00622" lon="-0.09566">
        <ele>432.25</ele>
        <time>2013-12-14T15:38:18Z</time>
      </trkpt>
      <trkpt lat="43.00651" lon="-0.09549">
        <ele>431.29</ele>
        <time>2013-12-14T15:38:24Z</time>
      </trkpt>
      <trkpt lat="43.00669" lon="-0.09535">
        <ele>430.33</ele>
        <time>2013-12-14T15:38:28Z</time>
      </trkpt>
      <trkpt lat="43.00686" lon="-0.09524">
        <ele>429.37</ele>
        <time>2013-12-14T15:38:32Z</time>
      </trkpt>
      <trkpt lat="43.007" lon="-0.09514">
        <ele>429.37</ele>
        <time>2013-12-14T15:38:36Z</time>
      </trkpt>
      <trkpt lat="43.00718" lon="-0.09506">
        <ele>427.92</ele>
        <time>2013-12-14T15:38:40Z</time>
      </trkpt>
      <trkpt lat="43.00733" lon="-0.09492">
        <ele>428.4</ele>
        <time>2013-12-14T15:38:49Z</time>
      </trkpt>
      <trkpt lat="43.00735" lon="-0.09493">
        <ele>427.92</ele>
        <time>2013-12-14T15:39:05Z</time>
      </trkpt>
      <trkpt lat="43.00734" lon="-0.09493">
        <ele>427.44</ele>
        <time>2013-12-14T15:39:40Z</time>
      </trkpt>
      <trkpt lat="43.00735" lon="-0.09493">
        <ele>427.92</ele>
        <time>2013-12-14T15:40:21Z</time>
      </trkpt>
      <trkpt lat="43.00736" lon="-0.09492">
        <ele>427.92</ele>
        <time>2013-12-14T15:40:57Z</time>
      </trkpt>
      <trkpt lat="43.00736" lon="-0.09493">
        <ele>427.92</ele>
        <time>2013-12-14T15:41:30Z</time>
      </trkpt>
      <trkpt lat="43.00735" lon="-0.09491">
        <ele>427.44</ele>
        <time>2013-12-14T15:42:09Z</time>
      </trkpt>
      <trkpt lat="43.00734" lon="-0.09493">
        <ele>427.44</ele>
        <time>2013-12-14T15:42:52Z</time>
      </trkpt>
      <trkpt lat="43.00734" lon="-0.09491">
        <ele>422.64</ele>
        <time>2013-12-14T15:43:08Z</time>
      </trkpt>
      <trkpt lat="43.00734" lon="-0.09491">
        <ele>427.44</ele>
        <time>2013-12-14T15:43:09Z</time>
      </trkpt>
      <trkpt lat="43.00734" lon="-0.09491">
        <ele>427.92</ele>
        <time>2013-12-14T15:43:14Z</time>
      </trkpt>
      <trkpt lat="43.0073" lon="-0.09486">
        <ele>428.4</ele>
        <time>2013-12-14T15:43:25Z</time>
      </trkpt>
      <trkpt lat="43.0073" lon="-0.09487">
        <ele>427.92</ele>
        <time>2013-12-14T15:43:44Z</time>
      </trkpt>
    </trkseg>
  </trk>
</gpx>